Darstellungsparameter: Aktuell verwendete Einstellungen:
Skalierung der Graphiken ... ?
xyx+y,   Skalierungsfaktor:      Skalierung: Modus: x, Faktor: 1
Darstellungszeitraum ... ?
Vom - - bis: - -   Zeitraum: 09.02.2020 - 15.02.2020
Min/Max/Avg-Anzeige ... ?
Zeige MMA aktuell
Zeige MMA Monat
Zeige MMA alles
Zeige --A aktuell
Zeige --A Monat
Zeige --A alles
Keine MMA-Anzeige
MMA:
Keine MMA-Graphiken
MMA-Basis: 09.02.2020 - 15.02.2020
Quicknavigation für Darstellung... ?
Tage:      1T, 2T, 3T, 5T -1T -2T -3T -5T +1T +2T +3T +5T
Wochen: 1W, 2W, 3W -1W -2W -3W +1W +2W +3W
Monate: 1M, 3M, 6M -1M -3M -6M +1M +3M +6M
Jahre:    1J, 3J, 5J, 10J -1J -3J -5J -10J +1J +3J +5J +10J
Nutze für die Darstellung ... ?
Originaldaten oder Mittelwerte auf ...
Stundenbasis Tagesbasis Wochenbasis
Monatsbasis Jahresbasis      Datenbasis: Original-Daten
Darstellen als:
Statistik (Auto) Statistik J:M      Darstellung:
Zur Graphik,    zurück zur Übersicht aller Sensoren.
 
Tabellarische Datenbersicht: ?
 
Sensor: Nr:Datum:Temp:Feuchte:Taupunkt:
Aussen-T/F 1 09-02-2020 00:00:00 3.1 C 95 % 2.38 C
2 09-02-2020 00:05:00 3.2 C 96 % 2.63 C
3 09-02-2020 00:10:00 3.2 C 96 % 2.63 C
4 09-02-2020 00:15:00 3.3 C 96 % 2.72 C
5 09-02-2020 00:20:00 3.3 C 96 % 2.72 C
6 09-02-2020 00:25:00 3.3 C 96 % 2.72 C
7 09-02-2020 00:30:00 3.4 C 96 % 2.82 C
8 09-02-2020 00:35:00 3.4 C 96 % 2.82 C
9 09-02-2020 00:40:00 3.5 C 96 % 2.92 C
10 09-02-2020 00:45:00 3.6 C 96 % 3.02 C
11 09-02-2020 00:50:00 3.6 C 96 % 3.02 C
12 09-02-2020 00:55:00 3.6 C 96 % 3.02 C
13 09-02-2020 01:00:00 3.6 C 96 % 3.02 C
14 09-02-2020 01:05:00 3.6 C 96 % 3.02 C
15 09-02-2020 01:10:00 3.6 C 96 % 3.02 C
16 09-02-2020 01:15:00 3.5 C 96 % 2.92 C
17 09-02-2020 01:20:00 3.4 C 95 % 2.68 C
18 09-02-2020 01:25:00 3.3 C 95 % 2.58 C
19 09-02-2020 01:30:00 3.2 C 96 % 2.63 C
20 09-02-2020 01:35:00 3.1 C 95 % 2.38 C
21 09-02-2020 01:40:00 2.9 C 95 % 2.18 C
22 09-02-2020 01:45:00 2.8 C 95 % 2.08 C
23 09-02-2020 01:50:00 2.7 C 95 % 1.98 C
24 09-02-2020 01:55:00 2.7 C 95 % 1.98 C
25 09-02-2020 02:00:00 2.7 C 95 % 1.98 C
Sensor: Nr:Datum:Temp:Feuchte:Taupunkt:
Aussen-T/F 26 09-02-2020 02:05:00 2.8 C 96 % 2.23 C
27 09-02-2020 02:10:00 2.7 C 95 % 1.98 C
28 09-02-2020 02:15:00 2.8 C 96 % 2.23 C
29 09-02-2020 02:20:00 2.9 C 96 % 2.33 C
30 09-02-2020 02:25:00 3.1 C 96 % 2.53 C
31 09-02-2020 02:30:00 3.1 C 96 % 2.53 C
32 09-02-2020 02:35:00 3.1 C 96 % 2.53 C
33 09-02-2020 02:40:00 3.1 C 96 % 2.53 C
34 09-02-2020 02:45:00 3.2 C 96 % 2.63 C
35 09-02-2020 02:50:00 3.1 C 96 % 2.53 C
36 09-02-2020 02:55:00 3.1 C 96 % 2.53 C
37 09-02-2020 03:00:00 3.1 C 96 % 2.53 C
38 09-02-2020 03:05:00 3.1 C 96 % 2.53 C
39 09-02-2020 03:10:00 2.9 C 96 % 2.33 C
40 09-02-2020 03:15:00 2.7 C 95 % 1.98 C
41 09-02-2020 03:20:00 2.6 C 95 % 1.88 C
42 09-02-2020 03:25:00 2.4 C 95 % 1.68 C
43 09-02-2020 03:30:00 2.3 C 95 % 1.58 C
44 09-02-2020 03:35:00 2.2 C 95 % 1.48 C
45 09-02-2020 03:40:00 2.2 C 96 % 1.63 C
46 09-02-2020 03:45:00 2.2 C 96 % 1.63 C
47 09-02-2020 03:50:00 2.1 C 96 % 1.53 C
48 09-02-2020 03:55:00 2 C 95 % 1.29 C
49 09-02-2020 04:00:00 2 C 96 % 1.43 C
50 09-02-2020 04:05:00 2 C 96 % 1.43 C
Sensor: Nr:Datum:Temp:Feuchte:Taupunkt:
Aussen-T/F 51 09-02-2020 04:10:00 2.1 C 96 % 1.53 C
52 09-02-2020 04:15:00 2.3 C 96 % 1.73 C
53 09-02-2020 04:20:00 2.4 C 96 % 1.83 C
54 09-02-2020 04:25:00 2.6 C 96 % 2.03 C
55 09-02-2020 04:30:00 2.7 C 96 % 2.13 C
56 09-02-2020 04:35:00 2.8 C 97 % 2.37 C
57 09-02-2020 04:40:00 2.8 C 97 % 2.37 C
58 09-02-2020 04:45:00 2.8 C 97 % 2.37 C
59 09-02-2020 04:50:00 2.9 C 97 % 2.47 C
60 09-02-2020 04:55:00 2.9 C 96 % 2.33 C
61 09-02-2020 05:00:00 3 C 96 % 2.43 C
62 09-02-2020 05:05:00 3.1 C 96 % 2.53 C
63 09-02-2020 05:10:00 3.1 C 96 % 2.53 C
64 09-02-2020 05:15:00 3.1 C 97 % 2.67 C
65 09-02-2020 05:20:00 3.2 C 97 % 2.77 C
66 09-02-2020 05:25:00 3.2 C 97 % 2.77 C
67 09-02-2020 05:30:00 3.3 C 97 % 2.87 C
68 09-02-2020 05:35:00 3.4 C 97 % 2.97 C
69 09-02-2020 05:40:00 3.5 C 97 % 3.07 C
70 09-02-2020 05:45:00 3.5 C 97 % 3.07 C
71 09-02-2020 05:50:00 3.5 C 97 % 3.07 C
72 09-02-2020 05:55:00 3.6 C 97 % 3.17 C
73 09-02-2020 06:00:00 3.5 C 97 % 3.07 C
74 09-02-2020 06:05:00 3.5 C 97 % 3.07 C
75 09-02-2020 06:10:00 3.5 C 97 % 3.07 C
Sensor: Nr:Datum:Temp:Feuchte:Taupunkt:
Aussen-T/F 76 09-02-2020 06:15:00 3.4 C 96 % 2.82 C
77 09-02-2020 06:20:00 3.2 C 96 % 2.63 C
78 09-02-2020 06:25:00 3.1 C 96 % 2.53 C
79 09-02-2020 06:30:00 2.9 C 96 % 2.33 C
80 09-02-2020 06:35:00 2.8 C 96 % 2.23 C
81 09-02-2020 06:40:00 2.7 C 96 % 2.13 C
82 09-02-2020 06:45:00 2.7 C 96 % 2.13 C
83 09-02-2020 06:50:00 2.8 C 96 % 2.23 C
84 09-02-2020 06:55:00 3 C 96 % 2.43 C
85 09-02-2020 07:00:00 3.1 C 97 % 2.67 C
86 09-02-2020 07:05:00 3.2 C 97 % 2.77 C
87 09-02-2020 07:10:00 3.3 C 97 % 2.87 C
88 09-02-2020 07:15:00 3.6 C 97 % 3.17 C
89 09-02-2020 07:20:00 3.6 C 97 % 3.17 C
90 09-02-2020 07:25:00 3.8 C 97 % 3.37 C
91 09-02-2020 07:30:00 4.3 C 97 % 3.87 C
92 09-02-2020 07:35:00 4.6 C 97 % 4.17 C
93 09-02-2020 07:40:00 4.9 C 97 % 4.46 C
94 09-02-2020 07:45:00 5.3 C 98 % 5.01 C
95 09-02-2020 07:50:00 5.8 C 98 % 5.51 C
96 09-02-2020 07:55:00 6.2 C 98 % 5.91 C
97 09-02-2020 08:00:00 6.4 C 98 % 6.11 C
98 09-02-2020 08:05:00 6.3 C 98 % 6.01 C
99 09-02-2020 08:10:00 6.2 C 97 % 5.76 C
100 09-02-2020 08:15:00 6.4 C 97 % 5.96 C
Sensor: Nr:Datum:Temp:Feuchte:Taupunkt:
Aussen-T/F 101 09-02-2020 08:20:00 6.8 C 97 % 6.36 C
102 09-02-2020 08:25:00 7.3 C 97 % 6.86 C
103 09-02-2020 08:30:00 7.9 C 96 % 7.3 C
104 09-02-2020 08:35:00 8.4 C 92 % 7.18 C
105 09-02-2020 08:40:00 8.8 C 90 % 7.25 C
106 09-02-2020 08:45:00 9.2 C 88 % 7.32 C
107 09-02-2020 08:50:00 9.3 C 86 % 7.08 C
108 09-02-2020 08:55:00 9.4 C 85 % 7.01 C
109 09-02-2020 09:00:00 9.6 C 85 % 7.21 C
110 09-02-2020 09:05:00 9.7 C 85 % 7.3 C
111 09-02-2020 09:10:00 9.9 C 83 % 7.15 C
112 09-02-2020 09:15:00 10.1 C 83 % 7.35 C
113 09-02-2020 09:20:00 10.2 C 82 % 7.27 C
114 09-02-2020 09:25:00 10.3 C 82 % 7.37 C
115 09-02-2020 09:30:00 10.4 C 82 % 7.46 C
116 09-02-2020 09:35:00 10.6 C 81 % 7.48 C
117 09-02-2020 09:40:00 10.6 C 80 % 7.3 C
118 09-02-2020 09:45:00 10.6 C 81 % 7.48 C
119 09-02-2020 09:50:00 10.4 C 81 % 7.28 C
120 09-02-2020 09:55:00 10.4 C 81 % 7.28 C
121 09-02-2020 10:00:00 10.4 C 81 % 7.28 C
122 09-02-2020 10:05:00 10.4 C 81 % 7.28 C
123 09-02-2020 10:10:00 10.5 C 80 % 7.2 C
124 09-02-2020 10:15:00 10.6 C 80 % 7.3 C
125 09-02-2020 10:20:00 10.6 C 80 % 7.3 C
Sensor: Nr:Datum:Temp:Feuchte:Taupunkt:
Aussen-T/F 126 09-02-2020 10:25:00 10.7 C 79 % 7.21 C
127 09-02-2020 10:30:00 10.8 C 79 % 7.31 C
128 09-02-2020 10:35:00 10.8 C 78 % 7.12 C
129 09-02-2020 10:40:00 10.8 C 77 % 6.94 C
130 09-02-2020 10:45:00 10.9 C 77 % 7.03 C
131 09-02-2020 10:50:00 11 C 77 % 7.13 C
132 09-02-2020 10:55:00 11.1 C 77 % 7.23 C
133 09-02-2020 11:00:00 11.1 C 76 % 7.04 C
134 09-02-2020 11:05:00 11.2 C 76 % 7.13 C
135 09-02-2020 11:10:00 11.3 C 75 % 7.04 C
136 09-02-2020 11:15:00 11.4 C 74 % 6.94 C
137 09-02-2020 11:20:00 11.5 C 74 % 7.03 C
138 09-02-2020 11:25:00 11.7 C 73 % 7.03 C
139 09-02-2020 11:30:00 11.8 C 73 % 7.12 C
140 09-02-2020 11:35:00 11.8 C 72 % 6.92 C
141 09-02-2020 11:40:00 11.9 C 72 % 7.02 C
142 09-02-2020 11:45:00 11.9 C 72 % 7.02 C
143 09-02-2020 11:50:00 11.9 C 73 % 7.22 C
144 09-02-2020 11:55:00 11.8 C 71 % 6.72 C
145 09-02-2020 12:00:00 11.8 C 72 % 6.92 C
146 09-02-2020 12:05:00 11.8 C 72 % 6.92 C
147 09-02-2020 12:10:00 11.7 C 72 % 6.83 C
148 09-02-2020 12:15:00 11.7 C 72 % 6.83 C
149 09-02-2020 12:20:00 11.7 C 72 % 6.83 C
150 09-02-2020 12:25:00 11.7 C 72 % 6.83 C
Sensor: Nr:Datum:Temp:Feuchte:Taupunkt:
Aussen-T/F 151 09-02-2020 12:30:00 11.7 C 71 % 6.62 C
152 09-02-2020 12:35:00 11.6 C 71 % 6.53 C
153 09-02-2020 12:40:00 11.6 C 70 % 6.32 C
154 09-02-2020 12:45:00 11.6 C 70 % 6.32 C
155 09-02-2020 12:50:00 11.5 C 71 % 6.43 C
156 09-02-2020 12:55:00 11.4 C 71 % 6.34 C
157 09-02-2020 13:00:00 11.4 C 70 % 6.13 C
158 09-02-2020 13:05:00 11.3 C 70 % 6.03 C
159 09-02-2020 13:10:00 11.3 C 70 % 6.03 C
160 09-02-2020 13:15:00 11.3 C 70 % 6.03 C
161 09-02-2020 13:20:00 11.3 C 70 % 6.03 C
162 09-02-2020 13:25:00 11.3 C 70 % 6.03 C
163 09-02-2020 13:30:00 11.3 C 70 % 6.03 C
164 09-02-2020 13:35:00 11.2 C 71 % 6.14 C
165 09-02-2020 13:40:00 11.2 C 71 % 6.14 C
166 09-02-2020 13:45:00 11.2 C 72 % 6.35 C
167 09-02-2020 13:50:00 11.3 C 71 % 6.24 C
168 09-02-2020 13:55:00 11.4 C 70 % 6.13 C
169 09-02-2020 14:00:00 11.5 C 71 % 6.43 C
170 09-02-2020 14:05:00 11.6 C 70 % 6.32 C
171 09-02-2020 14:10:00 11.7 C 69 % 6.21 C
172 09-02-2020 14:15:00 11.8 C 69 % 6.31 C
173 09-02-2020 14:20:00 11.9 C 70 % 6.61 C
174 09-02-2020 14:25:00 12 C 69 % 6.5 C
175 09-02-2020 14:30:00 12.1 C 68 % 6.38 C
Sensor: Nr:Datum:Temp:Feuchte:Taupunkt:
Aussen-T/F 176 09-02-2020 14:35:00 12.1 C 68 % 6.38 C
177 09-02-2020 14:40:00 12.1 C 69 % 6.59 C
178 09-02-2020 14:45:00 12.2 C 68 % 6.48 C
179 09-02-2020 14:50:00 12.2 C 67 % 6.26 C
180 09-02-2020 14:55:00 12.2 C 67 % 6.26 C
181 09-02-2020 15:00:00 12.2 C 68 % 6.48 C
182 09-02-2020 15:05:00 12.2 C 68 % 6.48 C
183 09-02-2020 15:10:00 12.2 C 68 % 6.48 C
184 09-02-2020 15:15:00 12.2 C 68 % 6.48 C
185 09-02-2020 15:20:00 12.2 C 67 % 6.26 C
186 09-02-2020 15:25:00 12.3 C 67 % 6.36 C
187 09-02-2020 15:30:00 12.4 C 67 % 6.45 C
188 09-02-2020 15:35:00 12.4 C 66 % 6.23 C
189 09-02-2020 15:40:00 12.5 C 66 % 6.33 C
190 09-02-2020 15:45:00 12.6 C 66 % 6.42 C
191 09-02-2020 15:50:00 12.6 C 66 % 6.42 C
192 09-02-2020 15:55:00 12.6 C 67 % 6.64 C
193 09-02-2020 16:00:00 12.5 C 67 % 6.55 C
194 09-02-2020 16:05:00 12.4 C 68 % 6.67 C
195 09-02-2020 16:10:00 12.4 C 68 % 6.67 C
196 09-02-2020 16:15:00 12.4 C 69 % 6.88 C
197 09-02-2020 16:20:00 12.4 C 68 % 6.67 C
198 09-02-2020 16:25:00 12.4 C 69 % 6.88 C
199 09-02-2020 16:30:00 12.4 C 69 % 6.88 C
200 09-02-2020 16:35:00 12.4 C 69 % 6.88 C
Sensor: Nr:Datum:Temp:Feuchte:Taupunkt:
Aussen-T/F 201 09-02-2020 16:40:00 12.5 C 69 % 6.97 C
202 09-02-2020 16:45:00 12.6 C 69 % 7.07 C
203 09-02-2020 16:50:00 12.6 C 68 % 6.86 C
204 09-02-2020 16:55:00 12.7 C 68 % 6.95 C
205 09-02-2020 17:00:00 12.8 C 68 % 7.05 C
206 09-02-2020 17:05:00 12.9 C 67 % 6.93 C
207 09-02-2020 17:10:00 12.8 C 68 % 7.05 C
208 09-02-2020 17:15:00 12.8 C 68 % 7.05 C
209 09-02-2020 17:20:00 12.8 C 68 % 7.05 C
210 09-02-2020 17:25:00 12.9 C 68 % 7.14 C
211 09-02-2020 17:30:00 12.9 C 68 % 7.14 C
212 09-02-2020 17:35:00 12.9 C 68 % 7.14 C
213 09-02-2020 17:40:00 13 C 68 % 7.24 C
214 09-02-2020 17:45:00 13 C 68 % 7.24 C
215 09-02-2020 17:50:00 13 C 68 % 7.24 C
216 09-02-2020 17:55:00 13 C 68 % 7.24 C
217 09-02-2020 18:00:00 13 C 68 % 7.24 C
218 09-02-2020 18:05:00 12.9 C 68 % 7.14 C
219 09-02-2020 18:10:00 12.9 C 68 % 7.14 C
220 09-02-2020 18:15:00 12.8 C 69 % 7.26 C
221 09-02-2020 18:20:00 12.8 C 70 % 7.47 C
222 09-02-2020 18:25:00 12.8 C 70 % 7.47 C
223 09-02-2020 18:30:00 12.7 C 70 % 7.38 C
224 09-02-2020 18:35:00 12.7 C 71 % 7.58 C
225 09-02-2020 18:40:00 12.7 C 72 % 7.79 C
Sensor: Nr:Datum:Temp:Feuchte:Taupunkt:
Aussen-T/F 226 09-02-2020 18:45:00 12.6 C 72 % 7.69 C
227 09-02-2020 18:50:00 12.6 C 72 % 7.69 C
228 09-02-2020 18:55:00 12.5 C 73 % 7.8 C
229 09-02-2020 19:00:00 12.5 C 74 % 8 C
230 09-02-2020 19:05:00 12.6 C 74 % 8.09 C
231 09-02-2020 19:10:00 12.5 C 74 % 8 C
232 09-02-2020 19:15:00 12.5 C 74 % 8 C
233 09-02-2020 19:20:00 12.5 C 74 % 8 C
234 09-02-2020 19:25:00 12.4 C 74 % 7.9 C
235 09-02-2020 19:30:00 12.4 C 74 % 7.9 C
236 09-02-2020 19:35:00 12.4 C 74 % 7.9 C
237 09-02-2020 19:40:00 12.5 C 74 % 8 C
238 09-02-2020 19:45:00 12.6 C 73 % 7.89 C
239 09-02-2020 19:50:00 12.6 C 73 % 7.89 C
240 09-02-2020 19:55:00 12.7 C 73 % 7.99 C
241 09-02-2020 20:00:00 12.7 C 73 % 7.99 C
242 09-02-2020 20:05:00 12.7 C 73 % 7.99 C
243 09-02-2020 20:10:00 12.7 C 73 % 7.99 C
244 09-02-2020 20:15:00 12.7 C 73 % 7.99 C
245 09-02-2020 20:20:00 12.7 C 73 % 7.99 C
246 09-02-2020 20:25:00 12.8 C 73 % 8.09 C
247 09-02-2020 20:30:00 12.8 C 73 % 8.09 C
248 09-02-2020 20:35:00 12.8 C 73 % 8.09 C
249 09-02-2020 20:40:00 12.8 C 74 % 8.29 C
250 09-02-2020 20:45:00 12.9 C 74 % 8.38 C
Sensor: Nr:Datum:Temp:Feuchte:Taupunkt:
Aussen-T/F 251 09-02-2020 20:50:00 12.9 C 74 % 8.38 C
252 09-02-2020 20:55:00 12.8 C 75 % 8.48 C
253 09-02-2020 21:00:00 12.8 C 75 % 8.48 C
254 09-02-2020 21:05:00 12.8 C 76 % 8.68 C
255 09-02-2020 21:10:00 12.6 C 79 % 9.06 C
256 09-02-2020 21:15:00 12.3 C 80 % 8.95 C
257 09-02-2020 21:20:00 12.1 C 81 % 8.94 C
258 09-02-2020 21:25:00 12 C 82 % 9.03 C
259 09-02-2020 21:30:00 12.1 C 82 % 9.12 C
260 09-02-2020 21:35:00 12.1 C 82 % 9.12 C
261 09-02-2020 21:40:00 12.1 C 82 % 9.12 C
262 09-02-2020 21:45:00 12.1 C 82 % 9.12 C
263 09-02-2020 21:50:00 12.1 C 82 % 9.12 C
264 09-02-2020 21:55:00 12.1 C 83 % 9.3 C
265 09-02-2020 22:00:00 11.9 C 84 % 9.29 C
266 09-02-2020 22:05:00 11.8 C 85 % 9.36 C
267 09-02-2020 22:10:00 11.7 C 86 % 9.44 C
268 09-02-2020 22:15:00 11.7 C 86 % 9.44 C
269 09-02-2020 22:20:00 11.7 C 86 % 9.44 C
270 09-02-2020 22:25:00 11.7 C 86 % 9.44 C
271 09-02-2020 22:30:00 11.7 C 85 % 9.27 C
272 09-02-2020 22:35:00 11.8 C 85 % 9.36 C
273 09-02-2020 22:40:00 12 C 84 % 9.38 C
274 09-02-2020 22:45:00 12.1 C 85 % 9.66 C
275 09-02-2020 22:50:00 11.9 C 86 % 9.64 C
Sensor: Nr:Datum:Temp:Feuchte:Taupunkt:
Aussen-T/F 276 09-02-2020 22:55:00 11.7 C 87 % 9.61 C
277 09-02-2020 23:00:00 11.6 C 88 % 9.68 C
278 09-02-2020 23:05:00 11.6 C 88 % 9.68 C
279 09-02-2020 23:10:00 11.6 C 88 % 9.68 C
280 09-02-2020 23:15:00 11.6 C 88 % 9.68 C
281 09-02-2020 23:20:00 11.6 C 88 % 9.68 C
282 09-02-2020 23:25:00 11.6 C 88 % 9.68 C
283 09-02-2020 23:30:00 11.6 C 88 % 9.68 C
284 09-02-2020 23:35:00 11.6 C 88 % 9.68 C
285 09-02-2020 23:40:00 11.6 C 89 % 9.85 C
286 09-02-2020 23:45:00 11.5 C 89 % 9.75 C
287 09-02-2020 23:50:00 11.6 C 89 % 9.85 C
288 09-02-2020 23:55:00 11.6 C 89 % 9.85 C
289 10-02-2020 00:00:00 11.6 C 88 % 9.68 C
290 10-02-2020 00:05:00 11.7 C 88 % 9.78 C
291 10-02-2020 00:10:00 11.7 C 88 % 9.78 C
292 10-02-2020 00:15:00 11.8 C 88 % 9.88 C
293 10-02-2020 00:20:00 11.8 C 88 % 9.88 C
294 10-02-2020 00:25:00 11.9 C 88 % 9.98 C
295 10-02-2020 00:30:00 11.8 C 89 % 10.05 C
296 10-02-2020 00:35:00 11.7 C 89 % 9.95 C
297 10-02-2020 00:40:00 11.7 C 89 % 9.95 C
298 10-02-2020 00:45:00 11.7 C 89 % 9.95 C
299 10-02-2020 00:50:00 11.8 C 89 % 10.05 C
300 10-02-2020 00:55:00 11.8 C 89 % 10.05 C
Sensor: Nr:Datum:Temp:Feuchte:Taupunkt:
Aussen-T/F 301 10-02-2020 01:00:00 11.7 C 90 % 10.12 C
302 10-02-2020 01:05:00 11.6 C 91 % 10.18 C
303 10-02-2020 01:10:00 11.5 C 91 % 10.08 C
304 10-02-2020 01:15:00 11.5 C 92 % 10.25 C
305 10-02-2020 01:20:00 11.6 C 92 % 10.35 C
306 10-02-2020 01:25:00 11.5 C 92 % 10.25 C
307 10-02-2020 01:30:00 11.5 C 92 % 10.25 C
308 10-02-2020 01:35:00 11.4 C 93 % 10.31 C
309 10-02-2020 01:40:00 11.4 C 93 % 10.31 C
310 10-02-2020 01:45:00 11.4 C 93 % 10.31 C
311 10-02-2020 01:50:00 11.3 C 93 % 10.21 C
312 10-02-2020 01:55:00 10.8 C 92 % 9.55 C
313 10-02-2020 02:00:00 10.2 C 92 % 8.96 C
314 10-02-2020 02:05:00 9.9 C 92 % 8.66 C
315 10-02-2020 02:10:00 9.7 C 93 % 8.62 C
316 10-02-2020 02:15:00 9.5 C 93 % 8.43 C
317 10-02-2020 02:20:00 9.3 C 93 % 8.23 C
318 10-02-2020 02:25:00 9.2 C 93 % 8.13 C
319 10-02-2020 02:30:00 9 C 92 % 7.77 C
320 10-02-2020 02:35:00 8.9 C 92 % 7.67 C
321 10-02-2020 02:40:00 8.8 C 92 % 7.57 C
322 10-02-2020 02:45:00 8.8 C 92 % 7.57 C
323 10-02-2020 02:50:00 8.8 C 92 % 7.57 C
324 10-02-2020 02:55:00 8.8 C 91 % 7.41 C
325 10-02-2020 03:00:00 8.8 C 91 % 7.41 C
Sensor: Nr:Datum:Temp:Feuchte:Taupunkt:
Aussen-T/F 326 10-02-2020 03:05:00 8.8 C 91 % 7.41 C
327 10-02-2020 03:10:00 8.7 C 92 % 7.47 C
328 10-02-2020 03:15:00 8.6 C 91 % 7.22 C
329 10-02-2020 03:20:00 8.6 C 92 % 7.38 C
330 10-02-2020 03:25:00 8.6 C 91 % 7.22 C
331 10-02-2020 03:30:00 8.7 C 91 % 7.32 C
332 10-02-2020 03:35:00 8.7 C 91 % 7.32 C
333 10-02-2020 03:40:00 8.9 C 90 % 7.35 C
334 10-02-2020 03:45:00 9.1 C 89 % 7.39 C
335 10-02-2020 03:50:00 9.3 C 89 % 7.58 C
336 10-02-2020 03:55:00 9.4 C 88 % 7.52 C
337 10-02-2020 04:00:00 9.6 C 88 % 7.71 C
338 10-02-2020 04:05:00 9.6 C 87 % 7.55 C
339 10-02-2020 04:10:00 9.7 C 87 % 7.64 C
340 10-02-2020 04:15:00 9.8 C 86 % 7.57 C
341 10-02-2020 04:20:00 9.7 C 85 % 7.3 C
342 10-02-2020 04:25:00 9.8 C 85 % 7.4 C
343 10-02-2020 04:30:00 9.7 C 85 % 7.3 C
344 10-02-2020 04:35:00 9.7 C 84 % 7.13 C
345 10-02-2020 04:40:00 9.9 C 83 % 7.15 C
346 10-02-2020 04:45:00 10 C 83 % 7.25 C
347 10-02-2020 04:50:00 10 C 82 % 7.07 C
348 10-02-2020 04:55:00 10 C 82 % 7.07 C
349 10-02-2020 05:00:00 10.1 C 82 % 7.17 C
350 10-02-2020 05:05:00 10.1 C 83 % 7.35 C
Sensor: Nr:Datum:Temp:Feuchte:Taupunkt:
Aussen-T/F 351 10-02-2020 05:10:00 10 C 82 % 7.07 C
352 10-02-2020 05:15:00 10.1 C 82 % 7.17 C
353 10-02-2020 05:20:00 10 C 82 % 7.07 C
354 10-02-2020 05:25:00 10.1 C 81 % 6.99 C
355 10-02-2020 05:30:00 10 C 80 % 6.71 C
356 10-02-2020 05:35:00 9.9 C 81 % 6.8 C
357 10-02-2020 05:40:00 9.9 C 81 % 6.8 C
358 10-02-2020 05:45:00 9.9 C 82 % 6.98 C
359 10-02-2020 05:50:00 9.8 C 82 % 6.88 C
360 10-02-2020 05:55:00 9.8 C 83 % 7.05 C
361 10-02-2020 06:00:00 9.7 C 83 % 6.96 C
362 10-02-2020 06:05:00 9.7 C 83 % 6.96 C
363 10-02-2020 06:10:00 9.6 C 84 % 7.03 C
364 10-02-2020 06:15:00 9.5 C 85 % 7.11 C
365 10-02-2020 06:20:00 9.4 C 86 % 7.18 C
366 10-02-2020 06:25:00 9.2 C 87 % 7.15 C
367 10-02-2020 06:30:00 9 C 87 % 6.96 C
368 10-02-2020 06:35:00 8.8 C 87 % 6.76 C
369 10-02-2020 06:40:00 8.8 C 86 % 6.59 C
370 10-02-2020 06:45:00 8.8 C 83 % 6.08 C
371 10-02-2020 06:50:00 9.1 C 80 % 5.84 C
372 10-02-2020 06:55:00 9.2 C 79 % 5.75 C
373 10-02-2020 07:00:00 9.3 C 79 % 5.85 C
374 10-02-2020 07:05:00 9.3 C 79 % 5.85 C
375 10-02-2020 07:10:00 9.2 C 79 % 5.75 C
Sensor: Nr:Datum:Temp:Feuchte:Taupunkt:
Aussen-T/F 376 10-02-2020 07:15:00 9.1 C 80 % 5.84 C
377 10-02-2020 07:20:00 9.1 C 79 % 5.66 C
378 10-02-2020 07:25:00 9.2 C 76 % 5.2 C
379 10-02-2020 07:30:00 9.3 C 76 % 5.29 C
380 10-02-2020 07:35:00 9.3 C 77 % 5.48 C
381 10-02-2020 07:40:00 9.1 C 78 % 5.47 C
382 10-02-2020 07:45:00 8.9 C 78 % 5.28 C
383 10-02-2020 07:50:00 8.9 C 78 % 5.28 C
384 10-02-2020 07:55:00 8.8 C 78 % 5.18 C
385 10-02-2020 08:00:00 8.8 C 78 % 5.18 C
386 10-02-2020 08:05:00 8.8 C 78 % 5.18 C
387 10-02-2020 08:10:00 8.8 C 77 % 5 C
388 10-02-2020 08:15:00 8.9 C 77 % 5.09 C
389 10-02-2020 08:20:00 8.9 C 77 % 5.09 C
390 10-02-2020 08:25:00 8.9 C 80 % 5.64 C
391 10-02-2020 08:30:00 8.7 C 80 % 5.45 C
392 10-02-2020 08:35:00 8.4 C 82 % 5.51 C
393 10-02-2020 08:40:00 8.1 C 84 % 5.56 C
394 10-02-2020 08:45:00 7.9 C 84 % 5.37 C
395 10-02-2020 08:50:00 7.9 C 84 % 5.37 C
396 10-02-2020 08:55:00 7.8 C 82 % 4.92 C
397 10-02-2020 09:00:00 7.7 C 80 % 4.47 C
398 10-02-2020 09:05:00 7.8 C 77 % 4.03 C
399 10-02-2020 09:10:00 7.8 C 76 % 3.84 C
400 10-02-2020 09:15:00 7.8 C 76 % 3.84 C
Sensor: Nr:Datum:Temp:Feuchte:Taupunkt:
Aussen-T/F 401 10-02-2020 09:20:00 7.7 C 74 % 3.37 C
402 10-02-2020 09:25:00 7.8 C 74 % 3.46 C
403 10-02-2020 09:30:00 7.8 C 74 % 3.46 C
404 10-02-2020 09:35:00 7.8 C 74 % 3.46 C
405 10-02-2020 09:40:00 7.8 C 75 % 3.65 C
406 10-02-2020 09:45:00 7.8 C 75 % 3.65 C
407 10-02-2020 09:50:00 7.7 C 76 % 3.75 C
408 10-02-2020 09:55:00 7.7 C 76 % 3.75 C
409 10-02-2020 10:00:00 7.7 C 75 % 3.56 C
410 10-02-2020 10:05:00 7.7 C 75 % 3.56 C
411 10-02-2020 10:10:00 7.8 C 74 % 3.46 C
412 10-02-2020 10:15:00 7.9 C 73 % 3.37 C
413 10-02-2020 10:20:00 8.1 C 73 % 3.56 C
414 10-02-2020 10:25:00 8.2 C 73 % 3.66 C
415 10-02-2020 10:30:00 8.3 C 71 % 3.36 C
416 10-02-2020 10:35:00 8.4 C 71 % 3.46 C
417 10-02-2020 10:40:00 8.3 C 73 % 3.75 C
418 10-02-2020 10:45:00 8.1 C 75 % 3.94 C
419 10-02-2020 10:50:00 8 C 76 % 4.04 C
420 10-02-2020 10:55:00 8.1 C 77 % 4.32 C
421 10-02-2020 11:00:00 8.3 C 73 % 3.75 C
422 10-02-2020 11:05:00 8.7 C 71 % 3.74 C
423 10-02-2020 11:10:00 8.9 C 69 % 3.53 C
424 10-02-2020 11:15:00 9.1 C 69 % 3.72 C
425 10-02-2020 11:20:00 9.2 C 67 % 3.4 C
Sensor: Nr:Datum:Temp:Feuchte:Taupunkt:
Aussen-T/F 426 10-02-2020 11:25:00 9.3 C 66 % 3.28 C
427 10-02-2020 11:30:00 9.4 C 65 % 3.16 C
428 10-02-2020 11:35:00 9.4 C 63 % 2.72 C
429 10-02-2020 11:40:00 9.3 C 64 % 2.85 C
430 10-02-2020 11:45:00 9.3 C 64 % 2.85 C
431 10-02-2020 11:50:00 9.3 C 64 % 2.85 C
432 10-02-2020 11:55:00 9.3 C 65 % 3.07 C
433 10-02-2020 12:00:00 9.3 C 64 % 2.85 C
434 10-02-2020 12:05:00 9.1 C 64 % 2.66 C
435 10-02-2020 12:10:00 8.4 C 69 % 3.05 C
436 10-02-2020 12:15:00 7.6 C 79 % 4.2 C
437 10-02-2020 12:20:00 6.7 C 83 % 4.02 C
438 10-02-2020 12:25:00 6.2 C 86 % 4.04 C
439 10-02-2020 12:30:00 5.9 C 88 % 4.07 C
440 10-02-2020 12:35:00 6 C 90 % 4.49 C
441 10-02-2020 12:40:00 6.2 C 90 % 4.69 C
442 10-02-2020 12:45:00 6.3 C 89 % 4.62 C
443 10-02-2020 12:50:00 6.8 C 85 % 4.46 C
444 10-02-2020 12:55:00 7.5 C 80 % 4.28 C
445 10-02-2020 13:00:00 7.9 C 78 % 4.31 C
446 10-02-2020 13:05:00 8.2 C 76 % 4.23 C
447 10-02-2020 13:10:00 8.4 C 73 % 3.85 C
448 10-02-2020 13:15:00 8.7 C 71 % 3.74 C
449 10-02-2020 13:20:00 8.8 C 70 % 3.64 C
450 10-02-2020 13:25:00 8.8 C 70 % 3.64 C
Sensor: Nr:Datum:Temp:Feuchte:Taupunkt:
Aussen-T/F 451 10-02-2020 13:30:00 8.7 C 71 % 3.74 C
452 10-02-2020 13:35:00 8.6 C 71 % 3.65 C
453 10-02-2020 13:40:00 8.7 C 70 % 3.54 C
454 10-02-2020 13:45:00 8.8 C 69 % 3.44 C
455 10-02-2020 13:50:00 9.1 C 68 % 3.52 C
456 10-02-2020 13:55:00 9.3 C 66 % 3.28 C
457 10-02-2020 14:00:00 9.2 C 67 % 3.4 C
458 10-02-2020 14:05:00 9.1 C 67 % 3.31 C
459 10-02-2020 14:10:00 9 C 68 % 3.42 C
460 10-02-2020 14:15:00 8.8 C 75 % 4.62 C
461 10-02-2020 14:20:00 8.2 C 78 % 4.6 C
462 10-02-2020 14:25:00 7.9 C 79 % 4.49 C
463 10-02-2020 14:30:00 7.9 C 78 % 4.31 C
464 10-02-2020 14:35:00 7.9 C 78 % 4.31 C
465 10-02-2020 14:40:00 7.9 C 78 % 4.31 C
466 10-02-2020 14:45:00 8.1 C 77 % 4.32 C
467 10-02-2020 14:50:00 8.2 C 77 % 4.42 C
468 10-02-2020 14:55:00 8.3 C 77 % 4.51 C
469 10-02-2020 15:00:00 8.3 C 76 % 4.33 C
470 10-02-2020 15:05:00 8.4 C 76 % 4.42 C
471 10-02-2020 15:10:00 8.4 C 76 % 4.42 C
472 10-02-2020 15:15:00 8.6 C 74 % 4.24 C
473 10-02-2020 15:20:00 8.8 C 72 % 4.04 C
474 10-02-2020 15:25:00 8.9 C 71 % 3.94 C
475 10-02-2020 15:30:00 8.9 C 70 % 3.74 C
Sensor: Nr:Datum:Temp:Feuchte:Taupunkt:
Aussen-T/F 476 10-02-2020 15:35:00 8.7 C 72 % 3.94 C
477 10-02-2020 15:40:00 8.4 C 73 % 3.85 C
478 10-02-2020 15:45:00 8.2 C 75 % 4.04 C
479 10-02-2020 15:50:00 8.2 C 75 % 4.04 C
480 10-02-2020 15:55:00 8.1 C 75 % 3.94 C
481 10-02-2020 16:00:00 8.1 C 75 % 3.94 C
482 10-02-2020 16:05:00 8.1 C 75 % 3.94 C
483 10-02-2020 16:10:00 8.1 C 75 % 3.94 C
484 10-02-2020 16:15:00 8.1 C 76 % 4.13 C
485 10-02-2020 16:20:00 8.1 C 76 % 4.13 C
486 10-02-2020 16:25:00 8.1 C 77 % 4.32 C
487 10-02-2020 16:30:00 8.1 C 77 % 4.32 C
488 10-02-2020 16:35:00 8 C 77 % 4.22 C
489 10-02-2020 16:40:00 7.9 C 78 % 4.31 C
490 10-02-2020 16:45:00 7.8 C 78 % 4.21 C
491 10-02-2020 16:50:00 7.8 C 79 % 4.39 C
492 10-02-2020 16:55:00 7.7 C 80 % 4.47 C
493 10-02-2020 17:00:00 7.6 C 80 % 4.38 C
494 10-02-2020 17:05:00 7.4 C 80 % 4.18 C
495 10-02-2020 17:10:00 7.4 C 81 % 4.36 C
496 10-02-2020 17:15:00 7.3 C 80 % 4.09 C
497 10-02-2020 17:20:00 7.3 C 81 % 4.26 C
498 10-02-2020 17:25:00 7.2 C 81 % 4.16 C
499 10-02-2020 17:30:00 7.2 C 81 % 4.16 C
500 10-02-2020 17:35:00 7.2 C 82 % 4.34 C
Sensor: Nr:Datum:Temp:Feuchte:Taupunkt:
Aussen-T/F 501 10-02-2020 17:40:00 7.2 C 83 % 4.51 C
502 10-02-2020 17:45:00 7.1 C 84 % 4.58 C
503 10-02-2020 17:50:00 7 C 85 % 4.66 C
504 10-02-2020 17:55:00 6.8 C 87 % 4.79 C
505 10-02-2020 18:00:00 6.7 C 88 % 4.86 C
506 10-02-2020 18:05:00 6.5 C 88 % 4.66 C
507 10-02-2020 18:10:00 6.4 C 89 % 4.72 C
508 10-02-2020 18:15:00 6.3 C 89 % 4.62 C
509 10-02-2020 18:20:00 6.2 C 89 % 4.53 C
510 10-02-2020 18:25:00 6.1 C 90 % 4.59 C
511 10-02-2020 18:30:00 6 C 90 % 4.49 C
512 10-02-2020 18:35:00 6 C 91 % 4.65 C
513 10-02-2020 18:40:00 6 C 91 % 4.65 C
514 10-02-2020 18:45:00 6.1 C 91 % 4.74 C
515 10-02-2020 18:50:00 6.1 C 91 % 4.74 C
516 10-02-2020 18:55:00 6.2 C 91 % 4.84 C
517 10-02-2020 19:00:00 6.3 C 91 % 4.94 C
518 10-02-2020 19:05:00 6.3 C 91 % 4.94 C
519 10-02-2020 19:10:00 6.3 C 91 % 4.94 C
520 10-02-2020 19:15:00 6.3 C 91 % 4.94 C
521 10-02-2020 19:20:00 6.2 C 91 % 4.84 C
522 10-02-2020 19:25:00 6.2 C 91 % 4.84 C
523 10-02-2020 19:30:00 6.2 C 91 % 4.84 C
524 10-02-2020 19:35:00 6.2 C 92 % 5 C
525 10-02-2020 19:40:00 6.1 C 92 % 4.9 C
Sensor: Nr:Datum:Temp:Feuchte:Taupunkt:
Aussen-T/F 526 10-02-2020 19:45:00 6 C 92 % 4.8 C
527 10-02-2020 19:50:00 5.9 C 92 % 4.7 C
528 10-02-2020 19:55:00 5.9 C 92 % 4.7 C
529 10-02-2020 20:00:00 5.8 C 92 % 4.6 C
530 10-02-2020 20:05:00 5.8 C 93 % 4.76 C
531 10-02-2020 20:10:00 5.7 C 93 % 4.66 C
532 10-02-2020 20:15:00 5.6 C 93 % 4.56 C
533 10-02-2020 20:20:00 5.6 C 93 % 4.56 C
534 10-02-2020 20:25:00 5.5 C 93 % 4.46 C
535 10-02-2020 20:30:00 5.5 C 93 % 4.46 C
536 10-02-2020 20:35:00 5.4 C 93 % 4.36 C
537 10-02-2020 20:40:00 5.4 C 94 % 4.51 C
538 10-02-2020 20:45:00 5.3 C 94 % 4.41 C
539 10-02-2020 20:50:00 5.3 C 94 % 4.41 C
540 10-02-2020 20:55:00 5.3 C 94 % 4.41 C
541 10-02-2020 21:00:00 5.2 C 94 % 4.32 C
542 10-02-2020 21:05:00 5.2 C 94 % 4.32 C
543 10-02-2020 21:10:00 5.1 C 94 % 4.22 C
544 10-02-2020 21:15:00 5 C 94 % 4.12 C
545 10-02-2020 21:20:00 4.9 C 94 % 4.02 C
546 10-02-2020 21:25:00 4.9 C 94 % 4.02 C
547 10-02-2020 21:30:00 4.9 C 94 % 4.02 C
548 10-02-2020 21:35:00 5.2 C 95 % 4.47 C
549 10-02-2020 21:40:00 5.6 C 96 % 5.01 C
550 10-02-2020 21:45:00 5.9 C 96 % 5.31 C
Sensor: Nr:Datum:Temp:Feuchte:Taupunkt:
Aussen-T/F 551 10-02-2020 21:50:00 6.2 C 95 % 5.46 C
552 10-02-2020 21:55:00 6.4 C 94 % 5.51 C
553 10-02-2020 22:00:00 6.8 C 91 % 5.44 C
554 10-02-2020 22:05:00 7.1 C 90 % 5.57 C
555 10-02-2020 22:10:00 7.2 C 88 % 5.35 C
556 10-02-2020 22:15:00 7.3 C 88 % 5.45 C
557 10-02-2020 22:20:00 7.3 C 87 % 5.28 C
558 10-02-2020 22:25:00 7.3 C 87 % 5.28 C
559 10-02-2020 22:30:00 7.3 C 86 % 5.12 C
560 10-02-2020 22:35:00 7.3 C 86 % 5.12 C
561 10-02-2020 22:40:00 7.3 C 86 % 5.12 C
562 10-02-2020 22:45:00 7.3 C 85 % 4.95 C
563 10-02-2020 22:50:00 7.4 C 84 % 4.88 C
564 10-02-2020 22:55:00 7.6 C 83 % 4.9 C
565 10-02-2020 23:00:00 7.6 C 82 % 4.73 C
566 10-02-2020 23:05:00 7.7 C 80 % 4.47 C
567 10-02-2020 23:10:00 7.8 C 79 % 4.39 C
568 10-02-2020 23:15:00 7.9 C 78 % 4.31 C
569 10-02-2020 23:20:00 7.9 C 76 % 3.94 C
570 10-02-2020 23:25:00 7.9 C 76 % 3.94 C
571 10-02-2020 23:30:00 7.8 C 76 % 3.84 C
572 10-02-2020 23:35:00 7.8 C 76 % 3.84 C
573 10-02-2020 23:40:00 7.8 C 75 % 3.65 C
574 10-02-2020 23:45:00 7.8 C 76 % 3.84 C
575 10-02-2020 23:50:00 7.7 C 74 % 3.37 C
Sensor: Nr:Datum:Temp:Feuchte:Taupunkt:
Aussen-T/F 576 10-02-2020 23:55:00 7.7 C 74 % 3.37 C
577 11-02-2020 00:00:00 7.8 C 73 % 3.27 C
578 11-02-2020 00:05:00 7.8 C 72 % 3.08 C
579 11-02-2020 00:10:00 7.8 C 72 % 3.08 C
580 11-02-2020 00:15:00 7.8 C 72 % 3.08 C
581 11-02-2020 00:20:00 7.8 C 71 % 2.88 C
582 11-02-2020 00:25:00 7.9 C 71 % 2.98 C
583 11-02-2020 00:30:00 7.9 C 76 % 3.94 C
584 11-02-2020 00:35:00 6.7 C 82 % 3.85 C
585 11-02-2020 00:40:00 5.7 C 85 % 3.38 C
586 11-02-2020 00:45:00 5.2 C 87 % 3.22 C
587 11-02-2020 00:50:00 5 C 88 % 3.18 C
588 11-02-2020 00:55:00 4.9 C 88 % 3.08 C
589 11-02-2020 01:00:00 4.8 C 88 % 2.99 C
590 11-02-2020 01:05:00 4.8 C 87 % 2.82 C
591 11-02-2020 01:10:00 4.9 C 86 % 2.76 C
592 11-02-2020 01:15:00 5 C 85 % 2.69 C
593 11-02-2020 01:20:00 5.1 C 83 % 2.46 C
594 11-02-2020 01:25:00 5.2 C 83 % 2.56 C
595 11-02-2020 01:30:00 5.2 C 82 % 2.39 C
596 11-02-2020 01:35:00 5.2 C 81 % 2.21 C
597 11-02-2020 01:40:00 5.2 C 80 % 2.04 C
598 11-02-2020 01:45:00 5.2 C 79 % 1.86 C
599 11-02-2020 01:50:00 5.2 C 79 % 1.86 C
600 11-02-2020 01:55:00 5.2 C 79 % 1.86 C
Sensor: Nr:Datum:Temp:Feuchte:Taupunkt:
Aussen-T/F 601 11-02-2020 02:00:00 5.2 C 77 % 1.51 C
602 11-02-2020 02:05:00 5.3 C 75 % 1.24 C
603 11-02-2020 02:10:00 5.5 C 73 % 1.06 C
604 11-02-2020 02:15:00 5.8 C 73 % 1.34 C
605 11-02-2020 02:20:00 5.9 C 72 % 1.25 C
606 11-02-2020 02:25:00 5.9 C 72 % 1.25 C
607 11-02-2020 02:30:00 5.8 C 73 % 1.34 C
608 11-02-2020 02:35:00 5.7 C 73 % 1.25 C
609 11-02-2020 02:40:00 5.7 C 73 % 1.25 C
610 11-02-2020 02:45:00 5.7 C 76 % 1.81 C
611 11-02-2020 02:50:00 5.5 C 78 % 1.98 C
612 11-02-2020 02:55:00 5.3 C 78 % 1.78 C
613 11-02-2020 03:00:00 5.3 C 78 % 1.78 C
614 11-02-2020 03:05:00 5.5 C 76 % 1.62 C
615 11-02-2020 03:10:00 5.6 C 75 % 1.53 C
616 11-02-2020 03:15:00 5.6 C 73 % 1.15 C
617 11-02-2020 03:20:00 5.7 C 72 % 1.06 C
618 11-02-2020 03:25:00 5.8 C 71 % 0.96 C
619 11-02-2020 03:30:00 5.8 C 72 % 1.15 C
620 11-02-2020 03:35:00 5.7 C 72 % 1.06 C
621 11-02-2020 03:40:00 5.8 C 71 % 0.96 C
622 11-02-2020 03:45:00 5.8 C 71 % 0.96 C
623 11-02-2020 03:50:00 5.9 C 69 % 0.66 C
624 11-02-2020 03:55:00 6.1 C 68 % 0.65 C
625 11-02-2020 04:00:00 6.1 C 67 % 0.44 C
Sensor: Nr:Datum:Temp:Feuchte:Taupunkt:
Aussen-T/F 626 11-02-2020 04:05:00 6.1 C 68 % 0.65 C
627 11-02-2020 04:10:00 6.1 C 67 % 0.44 C
628 11-02-2020 04:15:00 6.1 C 66 % 0.24 C
629 11-02-2020 04:20:00 6.1 C 67 % 0.44 C
630 11-02-2020 04:25:00 6.1 C 67 % 0.44 C
631 11-02-2020 04:30:00 6.1 C 68 % 0.65 C
632 11-02-2020 04:35:00 6 C 68 % 0.55 C
633 11-02-2020 04:40:00 5.9 C 68 % 0.46 C
634 11-02-2020 04:45:00 5.9 C 69 % 0.66 C
635 11-02-2020 04:50:00 5.9 C 68 % 0.46 C
636 11-02-2020 04:55:00 6 C 67 % 0.35 C
637 11-02-2020 05:00:00 6.1 C 67 % 0.44 C
638 11-02-2020 05:05:00 6.1 C 68 % 0.65 C
639 11-02-2020 05:10:00 6.1 C 68 % 0.65 C
640 11-02-2020 05:15:00 6.2 C 69 % 0.95 C
641 11-02-2020 05:20:00 5.9 C 77 % 2.19 C
642 11-02-2020 05:25:00 5.4 C 79 % 2.06 C
643 11-02-2020 05:30:00 5.2 C 81 % 2.21 C
644 11-02-2020 05:35:00 5 C 82 % 2.19 C
645 11-02-2020 05:40:00 5 C 82 % 2.19 C
646 11-02-2020 05:45:00 4.9 C 83 % 2.26 C
647 11-02-2020 05:50:00 4.9 C 82 % 2.09 C
648 11-02-2020 05:55:00 4.9 C 82 % 2.09 C
649 11-02-2020 06:00:00 4.8 C 82 % 1.99 C
650 11-02-2020 06:05:00 4.7 C 83 % 2.07 C
Sensor: Nr:Datum:Temp:Feuchte:Taupunkt:
Aussen-T/F 651 11-02-2020 06:10:00 4.6 C 83 % 1.97 C
652 11-02-2020 06:15:00 4.7 C 81 % 1.73 C
653 11-02-2020 06:20:00 4.8 C 78 % 1.3 C
654 11-02-2020 06:25:00 5.1 C 73 % 0.67 C
655 11-02-2020 06:30:00 5.4 C 71 % 0.58 C
656 11-02-2020 06:35:00 5.5 C 70 % 0.48 C
657 11-02-2020 06:40:00 5.6 C 70 % 0.57 C
658 11-02-2020 06:45:00 5.6 C 70 % 0.57 C
659 11-02-2020 06:50:00 5.5 C 71 % 0.67 C
660 11-02-2020 06:55:00 5.4 C 75 % 1.33 C
661 11-02-2020 07:00:00 5.2 C 78 % 1.69 C
662 11-02-2020 07:05:00 5 C 79 % 1.67 C
663 11-02-2020 07:10:00 4.9 C 80 % 1.75 C
664 11-02-2020 07:15:00 4.7 C 81 % 1.73 C
665 11-02-2020 07:20:00 4.6 C 80 % 1.46 C
666 11-02-2020 07:25:00 4.6 C 80 % 1.46 C
667 11-02-2020 07:30:00 4.7 C 80 % 1.55 C
668 11-02-2020 07:35:00 4.7 C 79 % 1.38 C
669 11-02-2020 07:40:00 4.7 C 79 % 1.38 C
670 11-02-2020 07:45:00 4.6 C 79 % 1.28 C
671 11-02-2020 07:50:00 4.7 C 79 % 1.38 C
672 11-02-2020 07:55:00 4.8 C 77 % 1.12 C
673 11-02-2020 08:00:00 5.1 C 76 % 1.23 C
674 11-02-2020 08:05:00 5.2 C 75 % 1.14 C
675 11-02-2020 08:10:00 5.1 C 75 % 1.04 C
Sensor: Nr:Datum:Temp:Feuchte:Taupunkt:
Aussen-T/F 676 11-02-2020 08:15:00 5.1 C 75 % 1.04 C
677 11-02-2020 08:20:00 5.1 C 75 % 1.04 C
678 11-02-2020 08:25:00 5.1 C 74 % 0.86 C
679 11-02-2020 08:30:00 5.3 C 76 % 1.42 C
680 11-02-2020 08:35:00 5.1 C 80 % 1.94 C
681 11-02-2020 08:40:00 4.8 C 82 % 1.99 C
682 11-02-2020 08:45:00 4.7 C 83 % 2.07 C
683 11-02-2020 08:50:00 4.6 C 84 % 2.14 C
684 11-02-2020 08:55:00 4.6 C 84 % 2.14 C
685 11-02-2020 09:00:00 4.7 C 83 % 2.07 C
686 11-02-2020 09:05:00 4.7 C 83 % 2.07 C
687 11-02-2020 09:10:00 4.7 C 83 % 2.07 C
688 11-02-2020 09:15:00 4.9 C 83 % 2.26 C
689 11-02-2020 09:20:00 5.1 C 82 % 2.29 C
690 11-02-2020 09:25:00 5.2 C 81 % 2.21 C
691 11-02-2020 09:30:00 5.2 C 81 % 2.21 C
692 11-02-2020 09:35:00 5.2 C 81 % 2.21 C
693 11-02-2020 09:40:00 5.2 C 80 % 2.04 C
694 11-02-2020 09:45:00 5.2 C 80 % 2.04 C
695 11-02-2020 09:50:00 5.2 C 79 % 1.86 C
696 11-02-2020 09:55:00 5.3 C 78 % 1.78 C
697 11-02-2020 10:00:00 5.3 C 78 % 1.78 C
698 11-02-2020 10:05:00 5.6 C 77 % 1.89 C
699 11-02-2020 10:10:00 5.7 C 75 % 1.62 C
700 11-02-2020 10:15:00 5.9 C 74 % 1.63 C
Sensor: Nr:Datum:Temp:Feuchte:Taupunkt:
Aussen-T/F 701 11-02-2020 10:20:00 6.2 C 73 % 1.73 C
702 11-02-2020 10:25:00 6.3 C 72 % 1.63 C
703 11-02-2020 10:30:00 6.3 C 71 % 1.44 C
704 11-02-2020 10:35:00 6.3 C 71 % 1.44 C
705 11-02-2020 10:40:00 6.3 C 71 % 1.44 C
706 11-02-2020 10:45:00 6.2 C 72 % 1.54 C
707 11-02-2020 10:50:00 6.1 C 73 % 1.63 C
708 11-02-2020 10:55:00 6.1 C 75 % 2.01 C
709 11-02-2020 11:00:00 6.1 C 75 % 2.01 C
710 11-02-2020 11:05:00 6.3 C 74 % 2.02 C
711 11-02-2020 11:10:00 6.3 C 72 % 1.63 C
712 11-02-2020 11:15:00 6.5 C 69 % 1.23 C
713 11-02-2020 11:20:00 6.7 C 67 % 1.02 C
714 11-02-2020 11:25:00 6.8 C 66 % 0.9 C
715 11-02-2020 11:30:00 6.9 C 65 % 0.79 C
716 11-02-2020 11:35:00 7 C 66 % 1.09 C
717 11-02-2020 11:40:00 7.1 C 64 % 0.76 C
718 11-02-2020 11:45:00 7.1 C 64 % 0.76 C
719 11-02-2020 11:50:00 7 C 65 % 0.88 C
720 11-02-2020 11:55:00 7 C 64 % 0.67 C
721 11-02-2020 12:00:00 7.1 C 64 % 0.76 C
722 11-02-2020 12:05:00 7.2 C 64 % 0.86 C
723 11-02-2020 12:10:00 7.2 C 63 % 0.64 C
724 11-02-2020 12:15:00 7.2 C 66 % 1.29 C
725 11-02-2020 12:20:00 7.1 C 66 % 1.19 C
Sensor: Nr:Datum:Temp:Feuchte:Taupunkt:
Aussen-T/F 726 11-02-2020 12:25:00 7 C 67 % 1.3 C
727 11-02-2020 12:30:00 7 C 66 % 1.09 C
728 11-02-2020 12:35:00 7 C 66 % 1.09 C
729 11-02-2020 12:40:00 7.1 C 66 % 1.19 C
730 11-02-2020 12:45:00 7.1 C 64 % 0.76 C
731 11-02-2020 12:50:00 7.2 C 66 % 1.29 C
732 11-02-2020 12:55:00 7.1 C 65 % 0.98 C
733 11-02-2020 13:00:00 6.9 C 65 % 0.79 C
734 11-02-2020 13:05:00 6.7 C 67 % 1.02 C
735 11-02-2020 13:10:00 6.4 C 69 % 1.14 C
736 11-02-2020 13:15:00 6.4 C 69 % 1.14 C
737 11-02-2020 13:20:00 6.4 C 67 % 0.73 C
738 11-02-2020 13:25:00 6.4 C 67 % 0.73 C
739 11-02-2020 13:30:00 6.3 C 70 % 1.24 C
740 11-02-2020 13:35:00 6.5 C 68 % 1.03 C
741 11-02-2020 13:40:00 6.9 C 66 % 1 C
742 11-02-2020 13:45:00 7.3 C 64 % 0.95 C
743 11-02-2020 13:50:00 7.5 C 64 % 1.14 C
744 11-02-2020 13:55:00 7.5 C 61 % 0.48 C
745 11-02-2020 14:00:00 7.4 C 62 % 0.61 C
746 11-02-2020 14:05:00 7.4 C 63 % 0.83 C
747 11-02-2020 14:10:00 7.3 C 63 % 0.74 C
748 11-02-2020 14:15:00 6.9 C 72 % 2.21 C
749 11-02-2020 14:20:00 5.9 C 78 % 2.37 C
750 11-02-2020 14:25:00 5.2 C 82 % 2.39 C
Sensor: Nr:Datum:Temp:Feuchte:Taupunkt:
Aussen-T/F 751 11-02-2020 14:30:00 4.9 C 84 % 2.43 C
752 11-02-2020 14:35:00 4.9 C 84 % 2.43 C
753 11-02-2020 14:40:00 5 C 84 % 2.53 C
754 11-02-2020 14:45:00 5.2 C 84 % 2.72 C
755 11-02-2020 14:50:00 5.3 C 82 % 2.48 C
756 11-02-2020 14:55:00 5.5 C 76 % 1.62 C
757 11-02-2020 15:00:00 5.7 C 72 % 1.06 C
758 11-02-2020 15:05:00 5.8 C 72 % 1.15 C
759 11-02-2020 15:10:00 5.8 C 71 % 0.96 C
760 11-02-2020 15:15:00 5.9 C 73 % 1.44 C
761 11-02-2020 15:20:00 5.8 C 73 % 1.34 C
762 11-02-2020 15:25:00 6.1 C 72 % 1.44 C
763 11-02-2020 15:30:00 6.3 C 73 % 1.83 C
764 11-02-2020 15:35:00 6.4 C 74 % 2.11 C
765 11-02-2020 15:40:00 6.6 C 74 % 2.31 C
766 11-02-2020 15:45:00 6.7 C 73 % 2.21 C
767 11-02-2020 15:50:00 6.8 C 74 % 2.5 C
768 11-02-2020 15:55:00 6.9 C 72 % 2.21 C
769 11-02-2020 16:00:00 7 C 71 % 2.11 C
770 11-02-2020 16:05:00 7.1 C 70 % 2.01 C
771 11-02-2020 16:10:00 7.1 C 70 % 2.01 C
772 11-02-2020 16:15:00 7.1 C 68 % 1.61 C
773 11-02-2020 16:20:00 7 C 69 % 1.71 C
774 11-02-2020 16:25:00 7.1 C 69 % 1.81 C
775 11-02-2020 16:30:00 7.1 C 68 % 1.61 C
Sensor: Nr:Datum:Temp:Feuchte:Taupunkt:
Aussen-T/F 776 11-02-2020 16:35:00 7.2 C 69 % 1.9 C
777 11-02-2020 16:40:00 7.1 C 68 % 1.61 C
778 11-02-2020 16:45:00 6.9 C 70 % 1.82 C
779 11-02-2020 16:50:00 6.7 C 70 % 1.63 C
780 11-02-2020 16:55:00 6.6 C 71 % 1.73 C
781 11-02-2020 17:00:00 6.5 C 72 % 1.83 C
782 11-02-2020 17:05:00 6.4 C 73 % 1.92 C
783 11-02-2020 17:10:00 6.4 C 72 % 1.73 C
784 11-02-2020 17:15:00 6.4 C 72 % 1.73 C
785 11-02-2020 17:20:00 6.3 C 72 % 1.63 C
786 11-02-2020 17:25:00 6.2 C 72 % 1.54 C
787 11-02-2020 17:30:00 6.2 C 72 % 1.54 C
788 11-02-2020 17:35:00 6.1 C 73 % 1.63 C
789 11-02-2020 17:40:00 6.1 C 73 % 1.63 C
790 11-02-2020 17:45:00 6.1 C 72 % 1.44 C
791 11-02-2020 17:50:00 6.2 C 71 % 1.34 C
792 11-02-2020 17:55:00 6.2 C 71 % 1.34 C
793 11-02-2020 18:00:00 6.2 C 71 % 1.34 C
794 11-02-2020 18:05:00 6.1 C 71 % 1.25 C
795 11-02-2020 18:10:00 6.2 C 70 % 1.15 C
796 11-02-2020 18:15:00 6.2 C 70 % 1.15 C
797 11-02-2020 18:20:00 6.1 C 69 % 0.85 C
798 11-02-2020 18:25:00 6.1 C 70 % 1.05 C
799 11-02-2020 18:30:00 5.9 C 70 % 0.86 C
800 11-02-2020 18:35:00 5.9 C 70 % 0.86 C
Sensor: Nr:Datum:Temp:Feuchte:Taupunkt:
Aussen-T/F 801 11-02-2020 18:40:00 5.8 C 72 % 1.15 C
802 11-02-2020 18:45:00 5.8 C 72 % 1.15 C
803 11-02-2020 18:50:00 5.7 C 73 % 1.25 C
804 11-02-2020 18:55:00 5.7 C 73 % 1.25 C
805 11-02-2020 19:00:00 5.7 C 73 % 1.25 C
806 11-02-2020 19:05:00 5.7 C 73 % 1.25 C
807 11-02-2020 19:10:00 5.6 C 74 % 1.34 C
808 11-02-2020 19:15:00 5.5 C 75 % 1.43 C
809 11-02-2020 19:20:00 5.4 C 75 % 1.33 C
810 11-02-2020 19:25:00 5.3 C 75 % 1.24 C
811 11-02-2020 19:30:00 5.3 C 76 % 1.42 C
812 11-02-2020 19:35:00 5.3 C 76 % 1.42 C
813 11-02-2020 19:40:00 5.2 C 77 % 1.51 C
814 11-02-2020 19:45:00 5.2 C 77 % 1.51 C
815 11-02-2020 19:50:00 5.1 C 77 % 1.41 C
816 11-02-2020 19:55:00 5.1 C 76 % 1.23 C
817 11-02-2020 20:00:00 5.1 C 75 % 1.04 C
818 11-02-2020 20:05:00 5.2 C 75 % 1.14 C
819 11-02-2020 20:10:00 5.3 C 75 % 1.24 C
820 11-02-2020 20:15:00 5.5 C 70 % 0.48 C
821 11-02-2020 20:20:00 5.7 C 68 % 0.27 C
822 11-02-2020 20:25:00 5.9 C 68 % 0.46 C
823 11-02-2020 20:30:00 5.8 C 67 % 0.16 C
824 11-02-2020 20:35:00 5.8 C 67 % 0.16 C
825 11-02-2020 20:40:00 5.8 C 66 % -0.05 C
Sensor: Nr:Datum:Temp:Feuchte:Taupunkt:
Aussen-T/F 826 11-02-2020 20:45:00 5.7 C 66 % -0.14 C
827 11-02-2020 20:50:00 5.6 C 66 % -0.24 C
828 11-02-2020 20:55:00 5.5 C 67 % -0.13 C
829 11-02-2020 21:00:00 5.4 C 67 % -0.22 C
830 11-02-2020 21:05:00 5.3 C 67 % -0.32 C
831 11-02-2020 21:10:00 5.3 C 68 % -0.12 C
832 11-02-2020 21:15:00 5.3 C 68 % -0.12 C
833 11-02-2020 21:20:00 5.2 C 69 % -0.01 C
834 11-02-2020 21:25:00 5.2 C 68 % -0.21 C
835 11-02-2020 21:30:00 5.2 C 68 % -0.21 C
836 11-02-2020 21:35:00 5.2 C 69 % -0.01 C
837 11-02-2020 21:40:00 5.2 C 68 % -0.21 C
838 11-02-2020 21:45:00 5.2 C 69 % -0.01 C
839 11-02-2020 21:50:00 5.1 C 69 % -0.11 C
840 11-02-2020 21:55:00 5.1 C 69 % -0.11 C
841 11-02-2020 22:00:00 5 C 69 % -0.2 C
842 11-02-2020 22:05:00 5 C 70 % 0 C
843 11-02-2020 22:10:00 5 C 70 % 0 C
844 11-02-2020 22:15:00 5 C 70 % 0 C
845 11-02-2020 22:20:00 5 C 70 % 0 C
846 11-02-2020 22:25:00 4.9 C 70 % -0.1 C
847 11-02-2020 22:30:00 4.9 C 71 % 0.09 C
848 11-02-2020 22:35:00 4.8 C 71 % 0 C
849 11-02-2020 22:40:00 4.8 C 72 % 0.19 C
850 11-02-2020 22:45:00 4.9 C 72 % 0.29 C
Sensor: Nr:Datum:Temp:Feuchte:Taupunkt:
Aussen-T/F 851 11-02-2020 22:50:00 4.8 C 72 % 0.19 C
852 11-02-2020 22:55:00 4.7 C 73 % 0.28 C
853 11-02-2020 23:00:00 4.6 C 74 % 0.38 C
854 11-02-2020 23:05:00 4.5 C 73 % 0.09 C
855 11-02-2020 23:10:00 4.6 C 73 % 0.19 C
856 11-02-2020 23:15:00 4.6 C 73 % 0.19 C
857 11-02-2020 23:20:00 4.6 C 72 % 0 C
858 11-02-2020 23:25:00 4.7 C 72 % 0.09 C
859 11-02-2020 23:30:00 4.8 C 72 % 0.19 C
860 11-02-2020 23:35:00 4.9 C 71 % 0.09 C
861 11-02-2020 23:40:00 5 C 70 % 0 C
862 11-02-2020 23:45:00 5.1 C 70 % 0.09 C
863 11-02-2020 23:50:00 5.2 C 69 % -0.01 C
864 11-02-2020 23:55:00 5.2 C 70 % 0.19 C
865 12-02-2020 00:00:00 5.2 C 70 % 0.19 C
866 12-02-2020 00:05:00 5.3 C 70 % 0.28 C
867 12-02-2020 00:10:00 5.2 C 70 % 0.19 C
868 12-02-2020 00:15:00 5.3 C 69 % 0.09 C
869 12-02-2020 00:20:00 5.3 C 69 % 0.09 C
870 12-02-2020 00:25:00 5.3 C 70 % 0.28 C
871 12-02-2020 00:30:00 5.3 C 70 % 0.28 C
872 12-02-2020 00:35:00 5.2 C 70 % 0.19 C
873 12-02-2020 00:40:00 5.3 C 71 % 0.48 C
874 12-02-2020 00:45:00 5.2 C 72 % 0.58 C
875 12-02-2020 00:50:00 5.2 C 73 % 0.77 C
Sensor: Nr:Datum:Temp:Feuchte:Taupunkt:
Aussen-T/F 876 12-02-2020 00:55:00 5.2 C 73 % 0.77 C
877 12-02-2020 01:00:00 5.2 C 74 % 0.95 C
878 12-02-2020 01:05:00 5.2 C 74 % 0.95 C
879 12-02-2020 01:10:00 5.2 C 74 % 0.95 C
880 12-02-2020 01:15:00 5.1 C 75 % 1.04 C
881 12-02-2020 01:20:00 5 C 75 % 0.95 C
882 12-02-2020 01:25:00 5 C 76 % 1.13 C
883 12-02-2020 01:30:00 5 C 76 % 1.13 C
884 12-02-2020 01:35:00 5.1 C 76 % 1.23 C
885 12-02-2020 01:40:00 5.1 C 76 % 1.23 C
886 12-02-2020 01:45:00 5.1 C 75 % 1.04 C
887 12-02-2020 01:50:00 5.2 C 75 % 1.14 C
888 12-02-2020 01:55:00 5.2 C 75 % 1.14 C
889 12-02-2020 02:00:00 5.2 C 75 % 1.14 C
890 12-02-2020 02:05:00 5.2 C 75 % 1.14 C
891 12-02-2020 02:10:00 5.1 C 75 % 1.04 C
892 12-02-2020 02:15:00 5.1 C 75 % 1.04 C
893 12-02-2020 02:20:00 5.1 C 75 % 1.04 C
894 12-02-2020 02:25:00 5.1 C 75 % 1.04 C
895 12-02-2020 02:30:00 5 C 75 % 0.95 C
896 12-02-2020 02:35:00 4.9 C 75 % 0.85 C
897 12-02-2020 02:40:00 4.9 C 75 % 0.85 C
898 12-02-2020 02:45:00 4.8 C 76 % 0.94 C
899 12-02-2020 02:50:00 4.8 C 76 % 0.94 C
900 12-02-2020 02:55:00 4.7 C 76 % 0.84 C
Sensor: Nr:Datum:Temp:Feuchte:Taupunkt:
Aussen-T/F 901 12-02-2020 03:00:00 4.7 C 76 % 0.84 C
902 12-02-2020 03:05:00 4.7 C 76 % 0.84 C
903 12-02-2020 03:10:00 4.7 C 76 % 0.84 C
904 12-02-2020 03:15:00 4.7 C 76 % 0.84 C
905 12-02-2020 03:20:00 4.8 C 76 % 0.94 C
906 12-02-2020 03:25:00 4.8 C 76 % 0.94 C
907 12-02-2020 03:30:00 4.8 C 76 % 0.94 C
908 12-02-2020 03:35:00 4.8 C 76 % 0.94 C
909 12-02-2020 03:40:00 4.8 C 76 % 0.94 C
910 12-02-2020 03:45:00 4.7 C 76 % 0.84 C
911 12-02-2020 03:50:00 4.7 C 76 % 0.84 C
912 12-02-2020 03:55:00 4.6 C 77 % 0.92 C
913 12-02-2020 04:00:00 4.5 C 77 % 0.83 C
914 12-02-2020 04:05:00 4.5 C 78 % 1.01 C
915 12-02-2020 04:10:00 4.6 C 77 % 0.92 C
916 12-02-2020 04:15:00 4.7 C 77 % 1.02 C
917 12-02-2020 04:20:00 4.8 C 76 % 0.94 C
918 12-02-2020 04:25:00 4.9 C 76 % 1.03 C
919 12-02-2020 04:30:00 4.9 C 76 % 1.03 C
920 12-02-2020 04:35:00 4.9 C 77 % 1.22 C
921 12-02-2020 04:40:00 4.9 C 77 % 1.22 C
922 12-02-2020 04:45:00 4.9 C 77 % 1.22 C
923 12-02-2020 04:50:00 4.9 C 77 % 1.22 C
924 12-02-2020 04:55:00 4.9 C 77 % 1.22 C
925 12-02-2020 05:00:00 4.9 C 77 % 1.22 C
Sensor: Nr:Datum:Temp:Feuchte:Taupunkt:
Aussen-T/F 926 12-02-2020 05:05:00 4.9 C 77 % 1.22 C
927 12-02-2020 05:10:00 4.9 C 78 % 1.39 C
928 12-02-2020 05:15:00 4.9 C 78 % 1.39 C
929 12-02-2020 05:20:00 4.9 C 78 % 1.39 C
930 12-02-2020 05:25:00 5 C 77 % 1.31 C
931 12-02-2020 05:30:00 5.1 C 78 % 1.59 C
932 12-02-2020 05:35:00 5.1 C 77 % 1.41 C
933 12-02-2020 05:40:00 5.1 C 78 % 1.59 C
934 12-02-2020 05:45:00 5.1 C 77 % 1.41 C
935 12-02-2020 05:50:00 5.1 C 77 % 1.41 C
936 12-02-2020 05:55:00 5.1 C 77 % 1.41 C
937 12-02-2020 06:00:00 5.1 C 77 % 1.41 C
938 12-02-2020 06:05:00 5.1 C 77 % 1.41 C
939 12-02-2020 06:10:00 5.1 C 78 % 1.59 C
940 12-02-2020 06:15:00 5.1 C 78 % 1.59 C
941 12-02-2020 06:20:00 5 C 78 % 1.49 C
942 12-02-2020 06:25:00 5.1 C 79 % 1.77 C
943 12-02-2020 06:30:00 5 C 79 % 1.67 C
944 12-02-2020 06:35:00 5 C 79 % 1.67 C
945 12-02-2020 06:40:00 4.9 C 79 % 1.57 C
946 12-02-2020 06:45:00 4.9 C 79 % 1.57 C
947 12-02-2020 06:50:00 4.9 C 79 % 1.57 C
948 12-02-2020 06:55:00 4.9 C 79 % 1.57 C
949 12-02-2020 07:00:00 4.9 C 80 % 1.75 C
950 12-02-2020 07:05:00 4.8 C 80 % 1.65 C
Sensor: Nr:Datum:Temp:Feuchte:Taupunkt:
Aussen-T/F 951 12-02-2020 07:10:00 4.8 C 81 % 1.82 C
952 12-02-2020 07:15:00 4.7 C 83 % 2.07 C
953 12-02-2020 07:20:00 4.4 C 85 % 2.11 C
954 12-02-2020 07:25:00 4.2 C 87 % 2.23 C
955 12-02-2020 07:30:00 3.9 C 87 % 1.94 C
956 12-02-2020 07:35:00 3.8 C 88 % 2 C
957 12-02-2020 07:40:00 3.7 C 88 % 1.9 C
958 12-02-2020 07:45:00 3.7 C 88 % 1.9 C
959 12-02-2020 07:50:00 3.7 C 89 % 2.06 C
960 12-02-2020 07:55:00 3.7 C 89 % 2.06 C
961 12-02-2020 08:00:00 3.7 C 88 % 1.9 C
962 12-02-2020 08:05:00 3.7 C 88 % 1.9 C
963 12-02-2020 08:10:00 3.7 C 88 % 1.9 C
964 12-02-2020 08:15:00 3.8 C 88 % 2 C
965 12-02-2020 08:20:00 3.8 C 88 % 2 C
966 12-02-2020 08:25:00 3.8 C 88 % 2 C
967 12-02-2020 08:30:00 3.9 C 88 % 2.1 C
968 12-02-2020 08:35:00 3.9 C 87 % 1.94 C
969 12-02-2020 08:40:00 3.9 C 87 % 1.94 C
970 12-02-2020 08:45:00 3.9 C 87 % 1.94 C
971 12-02-2020 08:50:00 4 C 87 % 2.04 C
972 12-02-2020 08:55:00 4.1 C 87 % 2.14 C
973 12-02-2020 09:00:00 4.1 C 87 % 2.14 C
974 12-02-2020 09:05:00 4.1 C 86 % 1.97 C
975 12-02-2020 09:10:00 4.1 C 86 % 1.97 C
Sensor: Nr:Datum:Temp:Feuchte:Taupunkt:
Aussen-T/F 976 12-02-2020 09:15:00 4.2 C 86 % 2.07 C
977 12-02-2020 09:20:00 4.3 C 85 % 2.01 C
978 12-02-2020 09:25:00 4.3 C 85 % 2.01 C
979 12-02-2020 09:30:00 4.4 C 84 % 1.94 C
980 12-02-2020 09:35:00 4.4 C 84 % 1.94 C
981 12-02-2020 09:40:00 4.4 C 83 % 1.77 C
982 12-02-2020 09:45:00 4.4 C 84 % 1.94 C
983 12-02-2020 09:50:00 4.6 C 83 % 1.97 C
984 12-02-2020 09:55:00 4.8 C 83 % 2.16 C
985 12-02-2020 10:00:00 4.9 C 83 % 2.26 C
986 12-02-2020 10:05:00 5.1 C 82 % 2.29 C
987 12-02-2020 10:10:00 5.1 C 83 % 2.46 C
988 12-02-2020 10:15:00 5 C 84 % 2.53 C
989 12-02-2020 10:20:00 4.8 C 86 % 2.66 C
990 12-02-2020 10:25:00 4.8 C 87 % 2.82 C
991 12-02-2020 10:30:00 4.7 C 88 % 2.89 C
992 12-02-2020 10:35:00 4.7 C 89 % 3.05 C
993 12-02-2020 10:40:00 4.8 C 89 % 3.14 C
994 12-02-2020 10:45:00 4.8 C 89 % 3.14 C
995 12-02-2020 10:50:00 4.9 C 88 % 3.08 C
996 12-02-2020 10:55:00 5.2 C 88 % 3.38 C
997 12-02-2020 11:00:00 5.3 C 86 % 3.15 C
998 12-02-2020 11:05:00 5.5 C 85 % 3.18 C
999 12-02-2020 11:10:00 5.6 C 85 % 3.28 C
1000 12-02-2020 11:15:00 5.6 C 85 % 3.28 C
Sensor: Nr:Datum:Temp:Feuchte:Taupunkt:
Aussen-T/F 1001 12-02-2020 11:20:00 5.6 C 83 % 2.95 C
1002 12-02-2020 11:25:00 5.7 C 83 % 3.04 C
1003 12-02-2020 11:30:00 5.8 C 83 % 3.14 C
1004 12-02-2020 11:35:00 5.8 C 83 % 3.14 C
1005 12-02-2020 11:40:00 5.7 C 82 % 2.87 C
1006 12-02-2020 11:45:00 5.7 C 82 % 2.87 C
1007 12-02-2020 11:50:00 5.4 C 82 % 2.58 C
1008 12-02-2020 11:55:00 5.3 C 83 % 2.65 C
1009 12-02-2020 12:00:00 5.2 C 83 % 2.56 C
1010 12-02-2020 12:05:00 5.2 C 83 % 2.56 C
1011 12-02-2020 12:10:00 5.3 C 84 % 2.82 C
1012 12-02-2020 12:15:00 5.4 C 84 % 2.92 C
1013 12-02-2020 12:20:00 5.5 C 83 % 2.85 C
1014 12-02-2020 12:25:00 5.5 C 83 % 2.85 C
1015 12-02-2020 12:30:00 5.5 C 83 % 2.85 C
1016 12-02-2020 12:35:00 5.4 C 84 % 2.92 C
1017 12-02-2020 12:40:00 5.3 C 84 % 2.82 C
1018 12-02-2020 12:45:00 5.3 C 85 % 2.99 C
1019 12-02-2020 12:50:00 5.3 C 86 % 3.15 C
1020 12-02-2020 12:55:00 5.3 C 86 % 3.15 C
1021 12-02-2020 13:00:00 5.5 C 85 % 3.18 C
1022 12-02-2020 13:05:00 5.7 C 84 % 3.21 C
1023 12-02-2020 13:10:00 5.9 C 83 % 3.24 C
1024 12-02-2020 13:15:00 6.1 C 80 % 2.92 C
1025 12-02-2020 13:20:00 6.4 C 81 % 3.38 C
Sensor: Nr:Datum:Temp:Feuchte:Taupunkt:
Aussen-T/F 1026 12-02-2020 13:25:00 6.7 C 80 % 3.5 C
1027 12-02-2020 13:30:00 6.8 C 77 % 3.06 C
1028 12-02-2020 13:35:00 6.9 C 76 % 2.97 C
1029 12-02-2020 13:40:00 6.9 C 73 % 2.4 C
1030 12-02-2020 13:45:00 6.8 C 75 % 2.69 C
1031 12-02-2020 13:50:00 6.7 C 76 % 2.78 C
1032 12-02-2020 13:55:00 6.6 C 77 % 2.86 C
1033 12-02-2020 14:00:00 6.5 C 77 % 2.77 C
1034 12-02-2020 14:05:00 6.4 C 76 % 2.49 C
1035 12-02-2020 14:10:00 6.5 C 76 % 2.58 C
1036 12-02-2020 14:15:00 6.7 C 75 % 2.59 C
1037 12-02-2020 14:20:00 6.8 C 75 % 2.69 C
1038 12-02-2020 14:25:00 6.8 C 74 % 2.5 C
1039 12-02-2020 14:30:00 6.9 C 74 % 2.6 C
1040 12-02-2020 14:35:00 7 C 70 % 1.91 C
1041 12-02-2020 14:40:00 7.1 C 69 % 1.81 C
1042 12-02-2020 14:45:00 7.2 C 70 % 2.11 C
1043 12-02-2020 14:50:00 7.1 C 72 % 2.4 C
1044 12-02-2020 14:55:00 7 C 73 % 2.5 C
1045 12-02-2020 15:00:00 6.9 C 74 % 2.6 C
1046 12-02-2020 15:05:00 6.9 C 74 % 2.6 C
1047 12-02-2020 15:10:00 6.9 C 74 % 2.6 C
1048 12-02-2020 15:15:00 7 C 74 % 2.69 C
1049 12-02-2020 15:20:00 7.1 C 72 % 2.4 C
1050 12-02-2020 15:25:00 7.2 C 72 % 2.5 C
Sensor: Nr:Datum:Temp:Feuchte:Taupunkt:
Aussen-T/F 1051 12-02-2020 15:30:00 7.3 C 72 % 2.6 C
1052 12-02-2020 15:35:00 7.4 C 73 % 2.89 C
1053 12-02-2020 15:40:00 7.4 C 72 % 2.69 C
1054 12-02-2020 15:45:00 7.2 C 72 % 2.5 C
1055 12-02-2020 15:50:00 7 C 73 % 2.5 C
1056 12-02-2020 15:55:00 6.9 C 74 % 2.6 C
1057 12-02-2020 16:00:00 6.9 C 74 % 2.6 C
1058 12-02-2020 16:05:00 6.9 C 75 % 2.78 C
1059 12-02-2020 16:10:00 6.8 C 75 % 2.69 C
1060 12-02-2020 16:15:00 6.7 C 76 % 2.78 C
1061 12-02-2020 16:20:00 6.7 C 76 % 2.78 C
1062 12-02-2020 16:25:00 6.7 C 74 % 2.4 C
1063 12-02-2020 16:30:00 6.6 C 75 % 2.49 C
1064 12-02-2020 16:35:00 6.6 C 75 % 2.49 C
1065 12-02-2020 16:40:00 6.6 C 75 % 2.49 C
1066 12-02-2020 16:45:00 6.4 C 76 % 2.49 C
1067 12-02-2020 16:50:00 6.4 C 76 % 2.49 C
1068 12-02-2020 16:55:00 6.4 C 76 % 2.49 C
1069 12-02-2020 17:00:00 6.3 C 74 % 2.02 C
1070 12-02-2020 17:05:00 6.3 C 74 % 2.02 C
1071 12-02-2020 17:10:00 6.2 C 74 % 1.92 C
1072 12-02-2020 17:15:00 6.1 C 75 % 2.01 C
1073 12-02-2020 17:20:00 6 C 75 % 1.91 C
1074 12-02-2020 17:25:00 5.9 C 75 % 1.82 C
1075 12-02-2020 17:30:00 5.8 C 75 % 1.72 C
Sensor: Nr:Datum:Temp:Feuchte:Taupunkt:
Aussen-T/F 1076 12-02-2020 17:35:00 5.7 C 76 % 1.81 C
1077 12-02-2020 17:40:00 5.6 C 77 % 1.89 C
1078 12-02-2020 17:45:00 5.4 C 78 % 1.88 C
1079 12-02-2020 17:50:00 5.3 C 79 % 1.96 C
1080 12-02-2020 17:55:00 5.3 C 80 % 2.14 C
1081 12-02-2020 18:00:00 5.1 C 81 % 2.12 C
1082 12-02-2020 18:05:00 4.9 C 82 % 2.09 C
1083 12-02-2020 18:10:00 4.8 C 82 % 1.99 C
1084 12-02-2020 18:15:00 4.7 C 83 % 2.07 C
1085 12-02-2020 18:20:00 4.6 C 83 % 1.97 C
1086 12-02-2020 18:25:00 4.5 C 83 % 1.87 C
1087 12-02-2020 18:30:00 4.4 C 84 % 1.94 C
1088 12-02-2020 18:35:00 4.3 C 84 % 1.84 C
1089 12-02-2020 18:40:00 4.3 C 84 % 1.84 C
1090 12-02-2020 18:45:00 4.3 C 84 % 1.84 C
1091 12-02-2020 18:50:00 4.3 C 84 % 1.84 C
1092 12-02-2020 18:55:00 4.3 C 84 % 1.84 C
1093 12-02-2020 19:00:00 4.2 C 84 % 1.74 C
1094 12-02-2020 19:05:00 4.2 C 85 % 1.91 C
1095 12-02-2020 19:10:00 4.3 C 84 % 1.84 C
1096 12-02-2020 19:15:00 4.3 C 84 % 1.84 C
1097 12-02-2020 19:20:00 4.3 C 84 % 1.84 C
1098 12-02-2020 19:25:00 4.4 C 84 % 1.94 C
1099 12-02-2020 19:30:00 4.3 C 84 % 1.84 C
1100 12-02-2020 19:35:00 4.3 C 84 % 1.84 C
Sensor: Nr:Datum:Temp:Feuchte:Taupunkt:
Aussen-T/F 1101 12-02-2020 19:40:00 4.2 C 84 % 1.74 C
1102 12-02-2020 19:45:00 4.2 C 85 % 1.91 C
1103 12-02-2020 19:50:00 4 C 85 % 1.71 C
1104 12-02-2020 19:55:00 3.9 C 86 % 1.78 C
1105 12-02-2020 20:00:00 3.8 C 86 % 1.68 C
1106 12-02-2020 20:05:00 3.7 C 87 % 1.74 C
1107 12-02-2020 20:10:00 3.6 C 87 % 1.64 C
1108 12-02-2020 20:15:00 3.4 C 87 % 1.45 C
1109 12-02-2020 20:20:00 3.3 C 87 % 1.35 C
1110 12-02-2020 20:25:00 3.1 C 88 % 1.31 C
1111 12-02-2020 20:30:00 2.9 C 88 % 1.11 C
1112 12-02-2020 20:35:00 2.8 C 89 % 1.17 C
1113 12-02-2020 20:40:00 2.9 C 90 % 1.43 C
1114 12-02-2020 20:45:00 3 C 90 % 1.52 C
1115 12-02-2020 20:50:00 3 C 90 % 1.52 C
1116 12-02-2020 20:55:00 3.1 C 91 % 1.78 C
1117 12-02-2020 21:00:00 2.9 C 90 % 1.43 C
1118 12-02-2020 21:05:00 2.8 C 90 % 1.33 C
1119 12-02-2020 21:10:00 2.8 C 90 % 1.33 C
1120 12-02-2020 21:15:00 2.7 C 91 % 1.38 C
1121 12-02-2020 21:20:00 2.7 C 91 % 1.38 C
1122 12-02-2020 21:25:00 2.8 C 91 % 1.48 C
1123 12-02-2020 21:30:00 2.7 C 91 % 1.38 C
1124 12-02-2020 21:35:00 2.8 C 91 % 1.48 C
1125 12-02-2020 21:40:00 2.7 C 91 % 1.38 C
Sensor: Nr:Datum:Temp:Feuchte:Taupunkt:
Aussen-T/F 1126 12-02-2020 21:45:00 2.8 C 91 % 1.48 C
1127 12-02-2020 21:50:00 2.8 C 91 % 1.48 C
1128 12-02-2020 21:55:00 2.9 C 91 % 1.58 C
1129 12-02-2020 22:00:00 2.8 C 91 % 1.48 C
1130 12-02-2020 22:05:00 2.8 C 91 % 1.48 C
1131 12-02-2020 22:10:00 2.8 C 91 % 1.48 C
1132 12-02-2020 22:15:00 2.7 C 91 % 1.38 C
1133 12-02-2020 22:20:00 2.6 C 91 % 1.28 C
1134 12-02-2020 22:25:00 2.6 C 91 % 1.28 C
1135 12-02-2020 22:30:00 2.4 C 91 % 1.08 C
1136 12-02-2020 22:35:00 2.4 C 91 % 1.08 C
1137 12-02-2020 22:40:00 2.4 C 92 % 1.24 C
1138 12-02-2020 22:45:00 2.5 C 92 % 1.34 C
1139 12-02-2020 22:50:00 2.4 C 92 % 1.24 C
1140 12-02-2020 22:55:00 2.4 C 92 % 1.24 C
1141 12-02-2020 23:00:00 2.4 C 92 % 1.24 C
1142 12-02-2020 23:05:00 2.3 C 92 % 1.14 C
1143 12-02-2020 23:10:00 2.3 C 93 % 1.29 C
1144 12-02-2020 23:15:00 2.4 C 93 % 1.39 C
1145 12-02-2020 23:20:00 2.4 C 93 % 1.39 C
1146 12-02-2020 23:25:00 2.4 C 93 % 1.39 C
1147 12-02-2020 23:30:00 2.4 C 93 % 1.39 C
1148 12-02-2020 23:35:00 2.4 C 93 % 1.39 C
1149 12-02-2020 23:40:00 2.4 C 93 % 1.39 C
1150 12-02-2020 23:45:00 2.4 C 93 % 1.39 C
Sensor: Nr:Datum:Temp:Feuchte:Taupunkt:
Aussen-T/F 1151 12-02-2020 23:50:00 2.4 C 93 % 1.39 C
1152 12-02-2020 23:55:00 2.6 C 93 % 1.59 C
1153 13-02-2020 00:00:00 2.6 C 93 % 1.59 C
1154 13-02-2020 00:05:00 2.6 C 93 % 1.59 C
1155 13-02-2020 00:10:00 2.5 C 93 % 1.49 C
1156 13-02-2020 00:15:00 2.5 C 93 % 1.49 C
1157 13-02-2020 00:20:00 2.5 C 93 % 1.49 C
1158 13-02-2020 00:25:00 2.4 C 93 % 1.39 C
1159 13-02-2020 00:30:00 2.4 C 93 % 1.39 C
1160 13-02-2020 00:35:00 2.4 C 93 % 1.39 C
1161 13-02-2020 00:40:00 2.4 C 93 % 1.39 C
1162 13-02-2020 00:45:00 2.4 C 93 % 1.39 C
1163 13-02-2020 00:50:00 2.4 C 93 % 1.39 C
1164 13-02-2020 00:55:00 2.4 C 93 % 1.39 C
1165 13-02-2020 01:00:00 2.5 C 94 % 1.63 C
1166 13-02-2020 01:05:00 2.5 C 93 % 1.49 C
1167 13-02-2020 01:10:00 2.5 C 93 % 1.49 C
1168 13-02-2020 01:15:00 2.5 C 93 % 1.49 C
1169 13-02-2020 01:20:00 2.4 C 93 % 1.39 C
1170 13-02-2020 01:25:00 2.4 C 93 % 1.39 C
1171 13-02-2020 01:30:00 2.4 C 93 % 1.39 C
1172 13-02-2020 01:35:00 2.4 C 93 % 1.39 C
1173 13-02-2020 01:40:00 2.4 C 93 % 1.39 C
1174 13-02-2020 01:45:00 2.3 C 93 % 1.29 C
1175 13-02-2020 01:50:00 2.2 C 93 % 1.19 C
Sensor: Nr:Datum:Temp:Feuchte:Taupunkt:
Aussen-T/F 1176 13-02-2020 01:55:00 2.2 C 93 % 1.19 C
1177 13-02-2020 02:00:00 2.2 C 93 % 1.19 C
1178 13-02-2020 02:05:00 2.1 C 93 % 1.09 C
1179 13-02-2020 02:10:00 1.9 C 93 % 0.89 C
1180 13-02-2020 02:15:00 1.8 C 93 % 0.79 C
1181 13-02-2020 02:20:00 1.8 C 93 % 0.79 C
1182 13-02-2020 02:25:00 1.7 C 93 % 0.69 C
1183 13-02-2020 02:30:00 1.6 C 93 % 0.59 C
1184 13-02-2020 02:35:00 1.5 C 93 % 0.49 C
1185 13-02-2020 02:40:00 1.4 C 93 % 0.4 C
1186 13-02-2020 02:45:00 1.3 C 93 % 0.3 C
1187 13-02-2020 02:50:00 1.3 C 93 % 0.3 C
1188 13-02-2020 02:55:00 1.2 C 93 % 0.2 C
1189 13-02-2020 03:00:00 1.1 C 93 % 0.1 C
1190 13-02-2020 03:05:00 1.1 C 93 % 0.1 C
1191 13-02-2020 03:10:00 1.1 C 94 % 0.24 C
1192 13-02-2020 03:15:00 1 C 94 % 0.15 C
1193 13-02-2020 03:20:00 1 C 94 % 0.15 C
1194 13-02-2020 03:25:00 1 C 94 % 0.15 C
1195 13-02-2020 03:30:00 1 C 94 % 0.15 C
1196 13-02-2020 03:35:00 1 C 94 % 0.15 C
1197 13-02-2020 03:40:00 0.9 C 94 % 0.05 C
1198 13-02-2020 03:45:00 0.9 C 94 % 0.05 C
1199 13-02-2020 03:50:00 0.8 C 94 % -0.05 C
1200 13-02-2020 03:55:00 0.8 C 94 % -0.05 C
Sensor: Nr:Datum:Temp:Feuchte:Taupunkt:
Aussen-T/F 1201 13-02-2020 04:00:00 0.7 C 94 % -0.15 C
1202 13-02-2020 04:05:00 0.7 C 94 % -0.15 C
1203 13-02-2020 04:10:00 0.7 C 94 % -0.15 C
1204 13-02-2020 04:15:00 0.6 C 94 % -0.25 C
1205 13-02-2020 04:20:00 0.6 C 94 % -0.25 C
1206 13-02-2020 04:25:00 0.6 C 95 % -0.11 C
1207 13-02-2020 04:30:00 0.6 C 95 % -0.11 C
1208 13-02-2020 04:35:00 0.6 C 95 % -0.11 C
1209 13-02-2020 04:40:00 0.6 C 94 % -0.25 C
1210 13-02-2020 04:45:00 0.5 C 94 % -0.35 C
1211 13-02-2020 04:50:00 0.5 C 94 % -0.35 C
1212 13-02-2020 04:55:00 0.5 C 95 % -0.21 C
1213 13-02-2020 05:00:00 0.6 C 95 % -0.11 C
1214 13-02-2020 05:05:00 0.5 C 95 % -0.21 C
1215 13-02-2020 05:10:00 0.4 C 95 % -0.31 C
1216 13-02-2020 05:15:00 0.3 C 95 % -0.4 C
1217 13-02-2020 05:20:00 0.2 C 94 % -0.65 C
1218 13-02-2020 05:25:00 0.1 C 94 % -0.75 C
1219 13-02-2020 05:30:00 0 C 95 % -0.7 C
1220 13-02-2020 05:35:00 -0.1 C 95 % -0.8 C
1221 13-02-2020 05:40:00 -0.1 C 95 % -0.8 C
1222 13-02-2020 05:45:00 -0.1 C 95 % -0.8 C
1223 13-02-2020 05:50:00 0 C 95 % -0.7 C
1224 13-02-2020 05:55:00 0.1 C 95 % -0.6 C
1225 13-02-2020 06:00:00 0.2 C 95 % -0.5 C
Sensor: Nr:Datum:Temp:Feuchte:Taupunkt:
Aussen-T/F 1226 13-02-2020 06:05:00 0.3 C 95 % -0.4 C
1227 13-02-2020 06:10:00 0.4 C 95 % -0.31 C
1228 13-02-2020 06:15:00 0.5 C 95 % -0.21 C
1229 13-02-2020 06:20:00 0.6 C 96 % 0.04 C
1230 13-02-2020 06:25:00 0.6 C 96 % 0.04 C
1231 13-02-2020 06:30:00 0.7 C 96 % 0.14 C
1232 13-02-2020 06:35:00 0.7 C 96 % 0.14 C
1233 13-02-2020 06:40:00 0.7 C 96 % 0.14 C
1234 13-02-2020 06:45:00 0.7 C 96 % 0.14 C
1235 13-02-2020 06:50:00 0.7 C 96 % 0.14 C
1236 13-02-2020 06:55:00 0.7 C 96 % 0.14 C
1237 13-02-2020 07:00:00 0.7 C 96 % 0.14 C
1238 13-02-2020 07:05:00 0.7 C 96 % 0.14 C
1239 13-02-2020 07:10:00 0.6 C 95 % -0.11 C
1240 13-02-2020 07:15:00 0.6 C 96 % 0.04 C
1241 13-02-2020 07:20:00 0.6 C 96 % 0.04 C
1242 13-02-2020 07:25:00 0.7 C 96 % 0.14 C
1243 13-02-2020 07:30:00 0.8 C 96 % 0.24 C
1244 13-02-2020 07:35:00 0.9 C 96 % 0.34 C
1245 13-02-2020 07:40:00 1 C 96 % 0.44 C
1246 13-02-2020 07:45:00 1.1 C 96 % 0.54 C
1247 13-02-2020 07:50:00 1.2 C 96 % 0.63 C
1248 13-02-2020 07:55:00 1.3 C 96 % 0.73 C
1249 13-02-2020 08:00:00 1.3 C 96 % 0.73 C
1250 13-02-2020 08:05:00 1.5 C 96 % 0.93 C
Sensor: Nr:Datum:Temp:Feuchte:Taupunkt:
Aussen-T/F 1251 13-02-2020 08:10:00 1.6 C 96 % 1.03 C
1252 13-02-2020 08:15:00 1.7 C 96 % 1.13 C
1253 13-02-2020 08:20:00 1.8 C 96 % 1.23 C
1254 13-02-2020 08:25:00 1.9 C 96 % 1.33 C
1255 13-02-2020 08:30:00 2 C 96 % 1.43 C
1256 13-02-2020 08:35:00 2.1 C 96 % 1.53 C
1257 13-02-2020 08:40:00 2.2 C 96 % 1.63 C
1258 13-02-2020 08:45:00 2.4 C 96 % 1.83 C
1259 13-02-2020 08:50:00 2.7 C 96 % 2.13 C
1260 13-02-2020 08:55:00 2.8 C 96 % 2.23 C
1261 13-02-2020 09:00:00 2.8 C 96 % 2.23 C
1262 13-02-2020 09:05:00 2.9 C 96 % 2.33 C
1263 13-02-2020 09:10:00 2.9 C 96 % 2.33 C
1264 13-02-2020 09:15:00 3 C 96 % 2.43 C
1265 13-02-2020 09:20:00 3.1 C 96 % 2.53 C
1266 13-02-2020 09:25:00 3.2 C 95 % 2.48 C
1267 13-02-2020 09:30:00 3.3 C 95 % 2.58 C
1268 13-02-2020 09:35:00 3.4 C 94 % 2.53 C
1269 13-02-2020 09:40:00 3.5 C 94 % 2.63 C
1270 13-02-2020 09:45:00 3.6 C 93 % 2.58 C
1271 13-02-2020 09:50:00 3.8 C 93 % 2.77 C
1272 13-02-2020 09:55:00 3.9 C 92 % 2.72 C
1273 13-02-2020 10:00:00 4 C 92 % 2.82 C
1274 13-02-2020 10:05:00 4.1 C 91 % 2.77 C
1275 13-02-2020 10:10:00 4.2 C 91 % 2.87 C
Sensor: Nr:Datum:Temp:Feuchte:Taupunkt:
Aussen-T/F 1276 13-02-2020 10:15:00 4.3 C 90 % 2.81 C
1277 13-02-2020 10:20:00 4.4 C 89 % 2.75 C
1278 13-02-2020 10:25:00 4.5 C 89 % 2.85 C
1279 13-02-2020 10:30:00 4.6 C 87 % 2.63 C
1280 13-02-2020 10:35:00 4.8 C 86 % 2.66 C
1281 13-02-2020 10:40:00 4.9 C 85 % 2.6 C
1282 13-02-2020 10:45:00 5.1 C 85 % 2.79 C
1283 13-02-2020 10:50:00 5.2 C 85 % 2.89 C
1284 13-02-2020 10:55:00 5.3 C 84 % 2.82 C
1285 13-02-2020 11:00:00 5.3 C 84 % 2.82 C
1286 13-02-2020 11:05:00 5.4 C 83 % 2.75 C
1287 13-02-2020 11:10:00 5.6 C 83 % 2.95 C
1288 13-02-2020 11:15:00 5.7 C 82 % 2.87 C
1289 13-02-2020 11:20:00 5.8 C 81 % 2.8 C
1290 13-02-2020 11:25:00 5.9 C 81 % 2.9 C
1291 13-02-2020 11:30:00 6.1 C 79 % 2.74 C
1292 13-02-2020 11:35:00 6.3 C 79 % 2.93 C
1293 13-02-2020 11:40:00 6.4 C 78 % 2.85 C
1294 13-02-2020 11:45:00 6.4 C 77 % 2.67 C
1295 13-02-2020 11:50:00 6.5 C 77 % 2.77 C
1296 13-02-2020 11:55:00 6.6 C 77 % 2.86 C
1297 13-02-2020 12:00:00 6.7 C 77 % 2.96 C
1298 13-02-2020 12:05:00 6.8 C 77 % 3.06 C
1299 13-02-2020 12:10:00 6.8 C 78 % 3.24 C
1300 13-02-2020 12:15:00 6.7 C 80 % 3.5 C
Sensor: Nr:Datum:Temp:Feuchte:Taupunkt:
Aussen-T/F 1301 13-02-2020 12:20:00 6.4 C 81 % 3.38 C
1302 13-02-2020 12:25:00 6.3 C 82 % 3.46 C
1303 13-02-2020 12:30:00 6.2 C 82 % 3.36 C
1304 13-02-2020 12:35:00 6.1 C 83 % 3.44 C
1305 13-02-2020 12:40:00 6 C 84 % 3.51 C
1306 13-02-2020 12:45:00 5.9 C 85 % 3.58 C
1307 13-02-2020 12:50:00 5.8 C 86 % 3.64 C
1308 13-02-2020 12:55:00 5.8 C 87 % 3.81 C
1309 13-02-2020 13:00:00 5.7 C 88 % 3.87 C
1310 13-02-2020 13:05:00 5.6 C 88 % 3.77 C
1311 13-02-2020 13:10:00 5.5 C 89 % 3.84 C
1312 13-02-2020 13:15:00 5.4 C 89 % 3.74 C
1313 13-02-2020 13:20:00 5.4 C 90 % 3.89 C
1314 13-02-2020 13:25:00 5.3 C 90 % 3.8 C
1315 13-02-2020 13:30:00 5.4 C 91 % 4.05 C
1316 13-02-2020 13:35:00 5.3 C 91 % 3.95 C
1317 13-02-2020 13:40:00 5.3 C 91 % 3.95 C
1318 13-02-2020 13:45:00 5.3 C 91 % 3.95 C
1319 13-02-2020 13:50:00 5.3 C 92 % 4.11 C
1320 13-02-2020 13:55:00 5.3 C 92 % 4.11 C
1321 13-02-2020 14:00:00 5.4 C 92 % 4.21 C
1322 13-02-2020 14:05:00 5.4 C 92 % 4.21 C
1323 13-02-2020 14:10:00 5.3 C 91 % 3.95 C
1324 13-02-2020 14:15:00 5.2 C 92 % 4.01 C
1325 13-02-2020 14:20:00 5.2 C 92 % 4.01 C
Sensor: Nr:Datum:Temp:Feuchte:Taupunkt:
Aussen-T/F 1326 13-02-2020 14:25:00 5.2 C 93 % 4.16 C
1327 13-02-2020 14:30:00 5.3 C 93 % 4.26 C
1328 13-02-2020 14:35:00 5.4 C 93 % 4.36 C
1329 13-02-2020 14:40:00 5.4 C 93 % 4.36 C
1330 13-02-2020 14:45:00 5.4 C 93 % 4.36 C
1331 13-02-2020 14:50:00 5.5 C 93 % 4.46 C
1332 13-02-2020 14:55:00 5.6 C 93 % 4.56 C
1333 13-02-2020 15:00:00 5.6 C 93 % 4.56 C
1334 13-02-2020 15:05:00 5.5 C 93 % 4.46 C
1335 13-02-2020 15:10:00 5.6 C 94 % 4.71 C
1336 13-02-2020 15:15:00 5.6 C 94 % 4.71 C
1337 13-02-2020 15:20:00 5.7 C 94 % 4.81 C
1338 13-02-2020 15:25:00 5.8 C 94 % 4.91 C
1339 13-02-2020 15:30:00 5.8 C 95 % 5.06 C
1340 13-02-2020 15:35:00 5.9 C 95 % 5.16 C
1341 13-02-2020 15:40:00 5.9 C 95 % 5.16 C
1342 13-02-2020 15:45:00 6 C 95 % 5.26 C
1343 13-02-2020 15:50:00 6.1 C 95 % 5.36 C
1344 13-02-2020 15:55:00 6.2 C 95 % 5.46 C
1345 13-02-2020 16:00:00 6.3 C 95 % 5.56 C
1346 13-02-2020 16:05:00 6.3 C 95 % 5.56 C
1347 13-02-2020 16:10:00 6.3 C 94 % 5.41 C
1348 13-02-2020 16:15:00 6.4 C 94 % 5.51 C
1349 13-02-2020 16:20:00 6.6 C 95 % 5.86 C
1350 13-02-2020 16:25:00 6.7 C 94 % 5.8 C
Sensor: Nr:Datum:Temp:Feuchte:Taupunkt:
Aussen-T/F 1351 13-02-2020 16:30:00 6.7 C 94 % 5.8 C
1352 13-02-2020 16:35:00 6.8 C 94 % 5.9 C
1353 13-02-2020 16:40:00 6.8 C 94 % 5.9 C
1354 13-02-2020 16:45:00 6.8 C 94 % 5.9 C
1355 13-02-2020 16:50:00 6.7 C 94 % 5.8 C
1356 13-02-2020 16:55:00 6.7 C 94 % 5.8 C
1357 13-02-2020 17:00:00 6.6 C 94 % 5.71 C
1358 13-02-2020 17:05:00 6.6 C 94 % 5.71 C
1359 13-02-2020 17:10:00 6.6 C 94 % 5.71 C
1360 13-02-2020 17:15:00 6.5 C 94 % 5.61 C
1361 13-02-2020 17:20:00 6.4 C 94 % 5.51 C
1362 13-02-2020 17:25:00 6.4 C 94 % 5.51 C
1363 13-02-2020 17:30:00 6.4 C 94 % 5.51 C
1364 13-02-2020 17:35:00 6.3 C 94 % 5.41 C
1365 13-02-2020 17:40:00 6.2 C 94 % 5.31 C
1366 13-02-2020 17:45:00 6.1 C 94 % 5.21 C
1367 13-02-2020 17:50:00 5.9 C 94 % 5.01 C
1368 13-02-2020 17:55:00 5.8 C 94 % 4.91 C
1369 13-02-2020 18:00:00 5.7 C 94 % 4.81 C
1370 13-02-2020 18:05:00 5.6 C 94 % 4.71 C
1371 13-02-2020 18:10:00 5.4 C 94 % 4.51 C
1372 13-02-2020 18:15:00 5.4 C 94 % 4.51 C
1373 13-02-2020 18:20:00 5.4 C 94 % 4.51 C
1374 13-02-2020 18:25:00 5.3 C 95 % 4.57 C
1375 13-02-2020 18:30:00 5.3 C 95 % 4.57 C
Sensor: Nr:Datum:Temp:Feuchte:Taupunkt:
Aussen-T/F 1376 13-02-2020 18:35:00 5.3 C 95 % 4.57 C
1377 13-02-2020 18:40:00 5.4 C 95 % 4.66 C
1378 13-02-2020 18:45:00 5.4 C 95 % 4.66 C
1379 13-02-2020 18:50:00 5.4 C 95 % 4.66 C
1380 13-02-2020 18:55:00 5.4 C 95 % 4.66 C
1381 13-02-2020 19:00:00 5.4 C 95 % 4.66 C
1382 13-02-2020 19:05:00 5.3 C 95 % 4.57 C
1383 13-02-2020 19:10:00 5.3 C 95 % 4.57 C
1384 13-02-2020 19:15:00 5.3 C 95 % 4.57 C
1385 13-02-2020 19:20:00 5.3 C 95 % 4.57 C
1386 13-02-2020 19:25:00 5.2 C 95 % 4.47 C
1387 13-02-2020 19:30:00 5.2 C 95 % 4.47 C
1388 13-02-2020 19:35:00 5.1 C 95 % 4.37 C
1389 13-02-2020 19:40:00 5.1 C 95 % 4.37 C
1390 13-02-2020 19:45:00 5.1 C 95 % 4.37 C
1391 13-02-2020 19:50:00 5.1 C 95 % 4.37 C
1392 13-02-2020 19:55:00 5.2 C 95 % 4.47 C
1393 13-02-2020 20:00:00 5.2 C 95 % 4.47 C
1394 13-02-2020 20:05:00 5.3 C 95 % 4.57 C
1395 13-02-2020 20:10:00 5.3 C 95 % 4.57 C
1396 13-02-2020 20:15:00 5.3 C 95 % 4.57 C
1397 13-02-2020 20:20:00 5.4 C 95 % 4.66 C
1398 13-02-2020 20:25:00 5.4 C 95 % 4.66 C
1399 13-02-2020 20:30:00 5.4 C 95 % 4.66 C
1400 13-02-2020 20:35:00 5.4 C 95 % 4.66 C
Sensor: Nr:Datum:Temp:Feuchte:Taupunkt:
Aussen-T/F 1401 13-02-2020 20:40:00 5.4 C 96 % 4.81 C
1402 13-02-2020 20:45:00 5.4 C 96 % 4.81 C
1403 13-02-2020 20:50:00 5.5 C 96 % 4.91 C
1404 13-02-2020 20:55:00 5.5 C 96 % 4.91 C
1405 13-02-2020 21:00:00 5.6 C 96 % 5.01 C
1406 13-02-2020 21:05:00 5.6 C 96 % 5.01 C
1407 13-02-2020 21:10:00 5.6 C 96 % 5.01 C
1408 13-02-2020 21:15:00 5.6 C 96 % 5.01 C
1409 13-02-2020 21:20:00 5.7 C 96 % 5.11 C
1410 13-02-2020 21:25:00 5.6 C 96 % 5.01 C
1411 13-02-2020 21:30:00 5.6 C 96 % 5.01 C
1412 13-02-2020 21:35:00 5.6 C 96 % 5.01 C
1413 13-02-2020 21:40:00 5.7 C 96 % 5.11 C
1414 13-02-2020 21:45:00 5.6 C 96 % 5.01 C
1415 13-02-2020 21:50:00 5.7 C 96 % 5.11 C
1416 13-02-2020 21:55:00 5.7 C 96 % 5.11 C
1417 13-02-2020 22:00:00 5.8 C 96 % 5.21 C
1418 13-02-2020 22:05:00 5.9 C 96 % 5.31 C
1419 13-02-2020 22:10:00 6.2 C 97 % 5.76 C
1420 13-02-2020 22:15:00 6.3 C 97 % 5.86 C
1421 13-02-2020 22:20:00 6.4 C 97 % 5.96 C
1422 13-02-2020 22:25:00 6.4 C 96 % 5.81 C
1423 13-02-2020 22:30:00 6.5 C 96 % 5.91 C
1424 13-02-2020 22:35:00 6.6 C 96 % 6.01 C
1425 13-02-2020 22:40:00 6.7 C 96 % 6.11 C
Sensor: Nr:Datum:Temp:Feuchte:Taupunkt:
Aussen-T/F 1426 13-02-2020 22:45:00 6.7 C 96 % 6.11 C
1427 13-02-2020 22:50:00 6.8 C 95 % 6.06 C
1428 13-02-2020 22:55:00 6.9 C 95 % 6.16 C
1429 13-02-2020 23:00:00 6.9 C 94 % 6 C
1430 13-02-2020 23:05:00 7 C 94 % 6.1 C
1431 13-02-2020 23:10:00 7 C 94 % 6.1 C
1432 13-02-2020 23:15:00 7 C 94 % 6.1 C
1433 13-02-2020 23:20:00 7 C 94 % 6.1 C
1434 13-02-2020 23:25:00 6.9 C 94 % 6 C
1435 13-02-2020 23:30:00 6.9 C 94 % 6 C
1436 13-02-2020 23:35:00 6.8 C 94 % 5.9 C
1437 13-02-2020 23:40:00 6.8 C 94 % 5.9 C
1438 13-02-2020 23:45:00 6.7 C 94 % 5.8 C
1439 13-02-2020 23:50:00 6.7 C 95 % 5.96 C
1440 13-02-2020 23:55:00 6.7 C 95 % 5.96 C
1441 14-02-2020 00:00:00 6.7 C 95 % 5.96 C
1442 14-02-2020 00:05:00 6.7 C 95 % 5.96 C
1443 14-02-2020 00:10:00 6.7 C 95 % 5.96 C
1444 14-02-2020 00:15:00 6.6 C 95 % 5.86 C
1445 14-02-2020 00:20:00 6.6 C 95 % 5.86 C
1446 14-02-2020 00:25:00 6.6 C 95 % 5.86 C
1447 14-02-2020 00:30:00 6.6 C 95 % 5.86 C
1448 14-02-2020 00:35:00 6.6 C 95 % 5.86 C
1449 14-02-2020 00:40:00 6.6 C 95 % 5.86 C
1450 14-02-2020 00:45:00 6.5 C 95 % 5.76 C
Sensor: Nr:Datum:Temp:Feuchte:Taupunkt:
Aussen-T/F 1451 14-02-2020 00:50:00 6.5 C 95 % 5.76 C
1452 14-02-2020 00:55:00 6.4 C 95 % 5.66 C
1453 14-02-2020 01:00:00 6.4 C 95 % 5.66 C
1454 14-02-2020 01:05:00 6.3 C 95 % 5.56 C
1455 14-02-2020 01:10:00 6.3 C 95 % 5.56 C
1456 14-02-2020 01:15:00 6.2 C 95 % 5.46 C
1457 14-02-2020 01:20:00 6.2 C 95 % 5.46 C
1458 14-02-2020 01:25:00 6.2 C 95 % 5.46 C
1459 14-02-2020 01:30:00 6.2 C 95 % 5.46 C
1460 14-02-2020 01:35:00 6.3 C 95 % 5.56 C
1461 14-02-2020 01:40:00 6.3 C 95 % 5.56 C
1462 14-02-2020 01:45:00 6.3 C 95 % 5.56 C
1463 14-02-2020 01:50:00 6.3 C 95 % 5.56 C
1464 14-02-2020 01:55:00 6.3 C 95 % 5.56 C
1465 14-02-2020 02:00:00 6.3 C 95 % 5.56 C
1466 14-02-2020 02:05:00 6.3 C 95 % 5.56 C
1467 14-02-2020 02:10:00 6.3 C 95 % 5.56 C
1468 14-02-2020 02:15:00 6.3 C 95 % 5.56 C
1469 14-02-2020 02:20:00 6.3 C 94 % 5.41 C
1470 14-02-2020 02:25:00 6.4 C 94 % 5.51 C
1471 14-02-2020 02:30:00 6.3 C 94 % 5.41 C
1472 14-02-2020 02:35:00 6.3 C 95 % 5.56 C
1473 14-02-2020 02:40:00 6.3 C 95 % 5.56 C
1474 14-02-2020 02:45:00 6.3 C 95 % 5.56 C
1475 14-02-2020 02:50:00 6.3 C 95 % 5.56 C
Sensor: Nr:Datum:Temp:Feuchte:Taupunkt:
Aussen-T/F 1476 14-02-2020 02:55:00 6.3 C 95 % 5.56 C
1477 14-02-2020 03:00:00 6.3 C 94 % 5.41 C
1478 14-02-2020 03:05:00 6.4 C 94 % 5.51 C
1479 14-02-2020 03:10:00 6.4 C 94 % 5.51 C
1480 14-02-2020 03:15:00 6.4 C 94 % 5.51 C
1481 14-02-2020 03:20:00 6.4 C 94 % 5.51 C
1482 14-02-2020 03:25:00 6.4 C 94 % 5.51 C
1483 14-02-2020 03:30:00 6.4 C 94 % 5.51 C
1484 14-02-2020 03:35:00 6.4 C 94 % 5.51 C
1485 14-02-2020 03:40:00 6.4 C 94 % 5.51 C
1486 14-02-2020 03:45:00 6.4 C 94 % 5.51 C
1487 14-02-2020 03:50:00 6.3 C 95 % 5.56 C
1488 14-02-2020 03:55:00 6.3 C 95 % 5.56 C
1489 14-02-2020 04:00:00 6.3 C 95 % 5.56 C
1490 14-02-2020 04:05:00 6.2 C 95 % 5.46 C
1491 14-02-2020 04:10:00 6.2 C 95 % 5.46 C
1492 14-02-2020 04:15:00 6 C 95 % 5.26 C
1493 14-02-2020 04:20:00 5.9 C 95 % 5.16 C
1494 14-02-2020 04:25:00 5.9 C 95 % 5.16 C
1495 14-02-2020 04:30:00 5.9 C 95 % 5.16 C
1496 14-02-2020 04:35:00 5.9 C 95 % 5.16 C
1497 14-02-2020 04:40:00 5.8 C 95 % 5.06 C
1498 14-02-2020 04:45:00 5.8 C 95 % 5.06 C
1499 14-02-2020 04:50:00 5.8 C 95 % 5.06 C
1500 14-02-2020 04:55:00 5.7 C 95 % 4.96 C
Sensor: Nr:Datum:Temp:Feuchte:Taupunkt:
Aussen-T/F 1501 14-02-2020 05:00:00 5.7 C 95 % 4.96 C
1502 14-02-2020 05:05:00 5.7 C 95 % 4.96 C
1503 14-02-2020 05:10:00 5.6 C 95 % 4.86 C
1504 14-02-2020 05:15:00 5.6 C 95 % 4.86 C
1505 14-02-2020 05:20:00 5.6 C 95 % 4.86 C
1506 14-02-2020 05:25:00 5.6 C 95 % 4.86 C
1507 14-02-2020 05:30:00 5.6 C 96 % 5.01 C
1508 14-02-2020 05:35:00 5.6 C 96 % 5.01 C
1509 14-02-2020 05:40:00 5.7 C 96 % 5.11 C
1510 14-02-2020 05:45:00 5.7 C 96 % 5.11 C
1511 14-02-2020 05:50:00 5.7 C 96 % 5.11 C
1512 14-02-2020 05:55:00 5.7 C 96 % 5.11 C
1513 14-02-2020 06:00:00 5.7 C 96 % 5.11 C
1514 14-02-2020 06:05:00 5.7 C 96 % 5.11 C
1515 14-02-2020 06:10:00 5.7 C 96 % 5.11 C
1516 14-02-2020 06:15:00 5.7 C 96 % 5.11 C
1517 14-02-2020 06:20:00 5.7 C 96 % 5.11 C
1518 14-02-2020 06:25:00 5.6 C 96 % 5.01 C
1519 14-02-2020 06:30:00 5.6 C 96 % 5.01 C
1520 14-02-2020 06:35:00 5.6 C 96 % 5.01 C
1521 14-02-2020 06:40:00 5.6 C 96 % 5.01 C
1522 14-02-2020 06:45:00 5.6 C 96 % 5.01 C
1523 14-02-2020 06:50:00 5.6 C 96 % 5.01 C
1524 14-02-2020 06:55:00 5.6 C 96 % 5.01 C
1525 14-02-2020 07:00:00 5.6 C 96 % 5.01 C
Sensor: Nr:Datum:Temp:Feuchte:Taupunkt:
Aussen-T/F 1526 14-02-2020 07:05:00 5.6 C 96 % 5.01 C
1527 14-02-2020 07:10:00 5.6 C 96 % 5.01 C
1528 14-02-2020 07:15:00 5.6 C 96 % 5.01 C
1529 14-02-2020 07:20:00 5.6 C 96 % 5.01 C
1530 14-02-2020 07:25:00 5.5 C 96 % 4.91 C
1531 14-02-2020 07:30:00 5.4 C 96 % 4.81 C
1532 14-02-2020 07:35:00 5.4 C 96 % 4.81 C
1533 14-02-2020 07:40:00 5.4 C 96 % 4.81 C
1534 14-02-2020 07:45:00 5.4 C 96 % 4.81 C
1535 14-02-2020 07:50:00 5.4 C 96 % 4.81 C
1536 14-02-2020 07:55:00 5.4 C 96 % 4.81 C
1537 14-02-2020 08:00:00 5.4 C 96 % 4.81 C
1538 14-02-2020 08:05:00 5.3 C 96 % 4.72 C
1539 14-02-2020 08:10:00 5.3 C 96 % 4.72 C
1540 14-02-2020 08:15:00 5.3 C 96 % 4.72 C
1541 14-02-2020 08:20:00 5.3 C 96 % 4.72 C
1542 14-02-2020 08:25:00 5.3 C 96 % 4.72 C
1543 14-02-2020 08:30:00 5.3 C 96 % 4.72 C
1544 14-02-2020 08:35:00 5.3 C 96 % 4.72 C
1545 14-02-2020 08:40:00 5.3 C 96 % 4.72 C
1546 14-02-2020 08:45:00 5.3 C 96 % 4.72 C
1547 14-02-2020 08:50:00 5.3 C 96 % 4.72 C
1548 14-02-2020 08:55:00 5.4 C 96 % 4.81 C
1549 14-02-2020 09:00:00 5.5 C 96 % 4.91 C
1550 14-02-2020 09:05:00 5.6 C 96 % 5.01 C
Sensor: Nr:Datum:Temp:Feuchte:Taupunkt:
Aussen-T/F 1551 14-02-2020 09:10:00 5.6 C 96 % 5.01 C
1552 14-02-2020 09:15:00 5.7 C 95 % 4.96 C
1553 14-02-2020 09:20:00 5.7 C 95 % 4.96 C
1554 14-02-2020 09:25:00 5.8 C 94 % 4.91 C
1555 14-02-2020 09:30:00 5.8 C 94 % 4.91 C
1556 14-02-2020 09:35:00 5.9 C 94 % 5.01 C
1557 14-02-2020 09:40:00 6 C 93 % 4.96 C
1558 14-02-2020 09:45:00 6 C 92 % 4.8 C
1559 14-02-2020 09:50:00 6.1 C 92 % 4.9 C
1560 14-02-2020 09:55:00 6.1 C 92 % 4.9 C
1561 14-02-2020 10:00:00 6.1 C 92 % 4.9 C
1562 14-02-2020 10:05:00 6.1 C 91 % 4.74 C
1563 14-02-2020 10:10:00 6.1 C 91 % 4.74 C
1564 14-02-2020 10:15:00 6.2 C 92 % 5 C
1565 14-02-2020 10:20:00 6.2 C 92 % 5 C
1566 14-02-2020 10:25:00 6.2 C 91 % 4.84 C
1567 14-02-2020 10:30:00 6.2 C 92 % 5 C
1568 14-02-2020 10:35:00 6.2 C 92 % 5 C
1569 14-02-2020 10:40:00 6.2 C 92 % 5 C
1570 14-02-2020 10:45:00 6.2 C 91 % 4.84 C
1571 14-02-2020 10:50:00 6.2 C 90 % 4.69 C
1572 14-02-2020 10:55:00 6.3 C 90 % 4.78 C
1573 14-02-2020 11:00:00 6.4 C 90 % 4.88 C
1574 14-02-2020 11:05:00 6.5 C 90 % 4.98 C
1575 14-02-2020 11:10:00 6.6 C 90 % 5.08 C
Sensor: Nr:Datum:Temp:Feuchte:Taupunkt:
Aussen-T/F 1576 14-02-2020 11:15:00 6.7 C 90 % 5.18 C
1577 14-02-2020 11:20:00 6.7 C 90 % 5.18 C
1578 14-02-2020 11:25:00 6.7 C 89 % 5.02 C
1579 14-02-2020 11:30:00 6.7 C 90 % 5.18 C
1580 14-02-2020 11:35:00 6.8 C 90 % 5.28 C
1581 14-02-2020 11:40:00 6.8 C 89 % 5.12 C
1582 14-02-2020 11:45:00 6.8 C 90 % 5.28 C
1583 14-02-2020 11:50:00 6.8 C 89 % 5.12 C
1584 14-02-2020 11:55:00 6.8 C 89 % 5.12 C
1585 14-02-2020 12:00:00 6.9 C 90 % 5.38 C
1586 14-02-2020 12:05:00 7 C 90 % 5.48 C
1587 14-02-2020 12:10:00 7.1 C 89 % 5.41 C
1588 14-02-2020 12:15:00 7.1 C 89 % 5.41 C
1589 14-02-2020 12:20:00 7.1 C 88 % 5.25 C
1590 14-02-2020 12:25:00 7.2 C 87 % 5.19 C
1591 14-02-2020 12:30:00 7.2 C 87 % 5.19 C
1592 14-02-2020 12:35:00 7.3 C 87 % 5.28 C
1593 14-02-2020 12:40:00 7.3 C 86 % 5.12 C
1594 14-02-2020 12:45:00 7.4 C 86 % 5.22 C
1595 14-02-2020 12:50:00 7.4 C 86 % 5.22 C
1596 14-02-2020 12:55:00 7.6 C 85 % 5.24 C
1597 14-02-2020 13:00:00 7.6 C 86 % 5.41 C
1598 14-02-2020 13:05:00 7.6 C 85 % 5.24 C
1599 14-02-2020 13:10:00 7.6 C 84 % 5.07 C
1600 14-02-2020 13:15:00 7.7 C 83 % 5 C
Sensor: Nr:Datum:Temp:Feuchte:Taupunkt:
Aussen-T/F 1601 14-02-2020 13:20:00 7.7 C 84 % 5.17 C
1602 14-02-2020 13:25:00 7.7 C 83 % 5 C
1603 14-02-2020 13:30:00 7.7 C 83 % 5 C
1604 14-02-2020 13:35:00 7.7 C 83 % 5 C
1605 14-02-2020 13:40:00 7.8 C 83 % 5.1 C
1606 14-02-2020 13:45:00 7.8 C 82 % 4.92 C
1607 14-02-2020 13:50:00 7.8 C 82 % 4.92 C
1608 14-02-2020 13:55:00 7.9 C 83 % 5.2 C
1609 14-02-2020 14:00:00 7.9 C 82 % 5.02 C
1610 14-02-2020 14:05:00 8 C 82 % 5.12 C
1611 14-02-2020 14:10:00 8.1 C 82 % 5.22 C
1612 14-02-2020 14:15:00 8.1 C 82 % 5.22 C
1613 14-02-2020 14:20:00 8.1 C 81 % 5.04 C
1614 14-02-2020 14:25:00 8.2 C 83 % 5.49 C
1615 14-02-2020 14:30:00 8.2 C 81 % 5.14 C
1616 14-02-2020 14:35:00 8.2 C 81 % 5.14 C
1617 14-02-2020 14:40:00 8.3 C 80 % 5.06 C
1618 14-02-2020 14:45:00 8.3 C 81 % 5.24 C
1619 14-02-2020 14:50:00 8.3 C 81 % 5.24 C
1620 14-02-2020 14:55:00 8.3 C 79 % 4.88 C
1621 14-02-2020 15:00:00 8.3 C 79 % 4.88 C
1622 14-02-2020 15:05:00 8.3 C 79 % 4.88 C
1623 14-02-2020 15:10:00 8.2 C 79 % 4.78 C
1624 14-02-2020 15:15:00 8.2 C 78 % 4.6 C
1625 14-02-2020 15:20:00 8.2 C 78 % 4.6 C
Sensor: Nr:Datum:Temp:Feuchte:Taupunkt:
Aussen-T/F 1626 14-02-2020 15:25:00 8.2 C 78 % 4.6 C
1627 14-02-2020 15:30:00 8.2 C 78 % 4.6 C
1628 14-02-2020 15:35:00 8.2 C 78 % 4.6 C
1629 14-02-2020 15:40:00 8.3 C 78 % 4.7 C
1630 14-02-2020 15:45:00 8.3 C 78 % 4.7 C
1631 14-02-2020 15:50:00 8.3 C 78 % 4.7 C
1632 14-02-2020 15:55:00 8.3 C 79 % 4.88 C
1633 14-02-2020 16:00:00 8.3 C 79 % 4.88 C
1634 14-02-2020 16:05:00 8.4 C 78 % 4.79 C
1635 14-02-2020 16:10:00 8.4 C 78 % 4.79 C
1636 14-02-2020 16:15:00 8.4 C 79 % 4.98 C
1637 14-02-2020 16:20:00 8.4 C 79 % 4.98 C
1638 14-02-2020 16:25:00 8.4 C 80 % 5.16 C
1639 14-02-2020 16:30:00 8.4 C 81 % 5.33 C
1640 14-02-2020 16:35:00 8.4 C 80 % 5.16 C
1641 14-02-2020 16:40:00 8.4 C 82 % 5.51 C
1642 14-02-2020 16:45:00 8.4 C 83 % 5.69 C
1643 14-02-2020 16:50:00 8.4 C 83 % 5.69 C
1644 14-02-2020 16:55:00 8.4 C 84 % 5.86 C
1645 14-02-2020 17:00:00 8.3 C 85 % 5.93 C
1646 14-02-2020 17:05:00 8.2 C 85 % 5.83 C
1647 14-02-2020 17:10:00 8.2 C 85 % 5.83 C
1648 14-02-2020 17:15:00 8 C 86 % 5.81 C
1649 14-02-2020 17:20:00 7.9 C 86 % 5.71 C
1650 14-02-2020 17:25:00 7.8 C 87 % 5.78 C
Sensor: Nr:Datum:Temp:Feuchte:Taupunkt:
Aussen-T/F 1651 14-02-2020 17:30:00 7.7 C 87 % 5.68 C
1652 14-02-2020 17:35:00 7.6 C 87 % 5.58 C
1653 14-02-2020 17:40:00 7.4 C 88 % 5.55 C
1654 14-02-2020 17:45:00 7.3 C 88 % 5.45 C
1655 14-02-2020 17:50:00 7.2 C 88 % 5.35 C
1656 14-02-2020 17:55:00 7.1 C 89 % 5.41 C
1657 14-02-2020 18:00:00 7 C 89 % 5.31 C
1658 14-02-2020 18:05:00 6.9 C 89 % 5.22 C
1659 14-02-2020 18:10:00 6.9 C 90 % 5.38 C
1660 14-02-2020 18:15:00 6.9 C 90 % 5.38 C
1661 14-02-2020 18:20:00 6.8 C 90 % 5.28 C
1662 14-02-2020 18:25:00 6.8 C 90 % 5.28 C
1663 14-02-2020 18:30:00 6.8 C 90 % 5.28 C
1664 14-02-2020 18:35:00 6.7 C 90 % 5.18 C
1665 14-02-2020 18:40:00 6.7 C 90 % 5.18 C
1666 14-02-2020 18:45:00 6.7 C 91 % 5.34 C
1667 14-02-2020 18:50:00 6.7 C 91 % 5.34 C
1668 14-02-2020 18:55:00 6.7 C 91 % 5.34 C
1669 14-02-2020 19:00:00 6.7 C 91 % 5.34 C
1670 14-02-2020 19:05:00 6.6 C 90 % 5.08 C
1671 14-02-2020 19:10:00 6.4 C 90 % 4.88 C
1672 14-02-2020 19:15:00 6.3 C 90 % 4.78 C
1673 14-02-2020 19:20:00 6.2 C 90 % 4.69 C
1674 14-02-2020 19:25:00 6.1 C 90 % 4.59 C
1675 14-02-2020 19:30:00 5.9 C 90 % 4.39 C
Sensor: Nr:Datum:Temp:Feuchte:Taupunkt:
Aussen-T/F 1676 14-02-2020 19:35:00 5.8 C 90 % 4.29 C
1677 14-02-2020 19:40:00 5.6 C 90 % 4.09 C
1678 14-02-2020 19:45:00 5.4 C 91 % 4.05 C
1679 14-02-2020 19:50:00 5.4 C 91 % 4.05 C
1680 14-02-2020 19:55:00 5.3 C 91 % 3.95 C
1681 14-02-2020 20:00:00 5.2 C 91 % 3.85 C
1682 14-02-2020 20:05:00 5.2 C 92 % 4.01 C
1683 14-02-2020 20:10:00 5.1 C 92 % 3.91 C
1684 14-02-2020 20:15:00 5.1 C 92 % 3.91 C
1685 14-02-2020 20:20:00 5.1 C 92 % 3.91 C
1686 14-02-2020 20:25:00 5 C 93 % 3.96 C
1687 14-02-2020 20:30:00 4.8 C 92 % 3.61 C
1688 14-02-2020 20:35:00 4.8 C 93 % 3.77 C
1689 14-02-2020 20:40:00 4.8 C 93 % 3.77 C
1690 14-02-2020 20:45:00 4.7 C 93 % 3.67 C
1691 14-02-2020 20:50:00 4.6 C 93 % 3.57 C
1692 14-02-2020 20:55:00 4.6 C 93 % 3.57 C
1693 14-02-2020 21:00:00 4.6 C 94 % 3.72 C
1694 14-02-2020 21:05:00 4.5 C 93 % 3.47 C
1695 14-02-2020 21:10:00 4.5 C 94 % 3.62 C
1696 14-02-2020 21:15:00 4.4 C 94 % 3.52 C
1697 14-02-2020 21:20:00 4.4 C 94 % 3.52 C
1698 14-02-2020 21:25:00 4.3 C 94 % 3.42 C
1699 14-02-2020 21:30:00 4.3 C 94 % 3.42 C
1700 14-02-2020 21:35:00 4.2 C 94 % 3.32 C
Sensor: Nr:Datum:Temp:Feuchte:Taupunkt:
Aussen-T/F 1701 14-02-2020 21:40:00 4.1 C 94 % 3.22 C
1702 14-02-2020 21:45:00 3.9 C 94 % 3.02 C
1703 14-02-2020 21:50:00 3.8 C 94 % 2.93 C
1704 14-02-2020 21:55:00 3.8 C 94 % 2.93 C
1705 14-02-2020 22:00:00 3.7 C 94 % 2.83 C
1706 14-02-2020 22:05:00 3.6 C 94 % 2.73 C
1707 14-02-2020 22:10:00 3.6 C 94 % 2.73 C
1708 14-02-2020 22:15:00 3.6 C 95 % 2.88 C
1709 14-02-2020 22:20:00 3.6 C 95 % 2.88 C
1710 14-02-2020 22:25:00 3.6 C 95 % 2.88 C
1711 14-02-2020 22:30:00 3.6 C 95 % 2.88 C
1712 14-02-2020 22:35:00 3.6 C 95 % 2.88 C
1713 14-02-2020 22:40:00 3.4 C 94 % 2.53 C
1714 14-02-2020 22:45:00 3.3 C 94 % 2.43 C
1715 14-02-2020 22:50:00 3.2 C 95 % 2.48 C
1716 14-02-2020 22:55:00 3.1 C 94 % 2.23 C
1717 14-02-2020 23:00:00 3.1 C 95 % 2.38 C
1718 14-02-2020 23:05:00 3.1 C 95 % 2.38 C
1719 14-02-2020 23:10:00 3.1 C 95 % 2.38 C
1720 14-02-2020 23:15:00 3.2 C 95 % 2.48 C
1721 14-02-2020 23:20:00 3.2 C 95 % 2.48 C
1722 14-02-2020 23:25:00 3.2 C 95 % 2.48 C
1723 14-02-2020 23:30:00 3.2 C 95 % 2.48 C
1724 14-02-2020 23:35:00 3.3 C 95 % 2.58 C
1725 14-02-2020 23:40:00 3.2 C 95 % 2.48 C
Sensor: Nr:Datum:Temp:Feuchte:Taupunkt:
Aussen-T/F 1726 14-02-2020 23:45:00 3.1 C 95 % 2.38 C
1727 14-02-2020 23:50:00 3 C 95 % 2.28 C
1728 14-02-2020 23:55:00 2.9 C 95 % 2.18 C
1729 15-02-2020 00:00:00 2.9 C 95 % 2.18 C
1730 15-02-2020 00:05:00 2.8 C 95 % 2.08 C
1731 15-02-2020 00:10:00 2.8 C 95 % 2.08 C
1732 15-02-2020 00:15:00 2.8 C 95 % 2.08 C
1733 15-02-2020 00:20:00 2.7 C 95 % 1.98 C
1734 15-02-2020 00:25:00 2.7 C 95 % 1.98 C
1735 15-02-2020 00:30:00 2.7 C 95 % 1.98 C
1736 15-02-2020 00:35:00 2.7 C 95 % 1.98 C
1737 15-02-2020 00:40:00 2.7 C 96 % 2.13 C
1738 15-02-2020 00:45:00 2.7 C 96 % 2.13 C
1739 15-02-2020 00:50:00 2.7 C 96 % 2.13 C
1740 15-02-2020 00:55:00 2.8 C 96 % 2.23 C
1741 15-02-2020 01:00:00 2.8 C 96 % 2.23 C
1742 15-02-2020 01:05:00 2.9 C 96 % 2.33 C
1743 15-02-2020 01:10:00 3 C 96 % 2.43 C
1744 15-02-2020 01:15:00 3.2 C 96 % 2.63 C
1745 15-02-2020 01:20:00 3.2 C 96 % 2.63 C
1746 15-02-2020 01:25:00 3.3 C 96 % 2.72 C
1747 15-02-2020 01:30:00 3.3 C 96 % 2.72 C
1748 15-02-2020 01:35:00 3.3 C 96 % 2.72 C
1749 15-02-2020 01:40:00 3.3 C 96 % 2.72 C
1750 15-02-2020 01:45:00 3.3 C 96 % 2.72 C
Sensor: Nr:Datum:Temp:Feuchte:Taupunkt:
Aussen-T/F 1751 15-02-2020 01:50:00 3.3 C 96 % 2.72 C
1752 15-02-2020 01:55:00 3.4 C 96 % 2.82 C
1753 15-02-2020 02:00:00 3.3 C 96 % 2.72 C
1754 15-02-2020 02:05:00 3.3 C 96 % 2.72 C
1755 15-02-2020 02:10:00 3.3 C 96 % 2.72 C
1756 15-02-2020 02:15:00 3.4 C 96 % 2.82 C
1757 15-02-2020 02:20:00 3.4 C 96 % 2.82 C
1758 15-02-2020 02:25:00 3.4 C 96 % 2.82 C
1759 15-02-2020 02:30:00 3.3 C 96 % 2.72 C
1760 15-02-2020 02:35:00 3.2 C 96 % 2.63 C
1761 15-02-2020 02:40:00 3.2 C 96 % 2.63 C
1762 15-02-2020 02:45:00 3.1 C 96 % 2.53 C
1763 15-02-2020 02:50:00 3.1 C 96 % 2.53 C
1764 15-02-2020 02:55:00 3.1 C 96 % 2.53 C
1765 15-02-2020 03:00:00 3 C 96 % 2.43 C
1766 15-02-2020 03:05:00 2.9 C 96 % 2.33 C
1767 15-02-2020 03:10:00 2.8 C 96 % 2.23 C
1768 15-02-2020 03:15:00 2.7 C 96 % 2.13 C
1769 15-02-2020 03:20:00 2.6 C 96 % 2.03 C
1770 15-02-2020 03:25:00 2.7 C 96 % 2.13 C
1771 15-02-2020 03:30:00 2.7 C 96 % 2.13 C
1772 15-02-2020 03:35:00 2.7 C 96 % 2.13 C
1773 15-02-2020 03:40:00 2.7 C 96 % 2.13 C
1774 15-02-2020 03:45:00 2.6 C 96 % 2.03 C
1775 15-02-2020 03:50:00 2.5 C 96 % 1.93 C
Sensor: Nr:Datum:Temp:Feuchte:Taupunkt:
Aussen-T/F 1776 15-02-2020 03:55:00 2.4 C 96 % 1.83 C
1777 15-02-2020 04:00:00 2.4 C 96 % 1.83 C
1778 15-02-2020 04:05:00 2.4 C 96 % 1.83 C
1779 15-02-2020 04:10:00 2.5 C 96 % 1.93 C
1780 15-02-2020 04:15:00 2.4 C 96 % 1.83 C
1781 15-02-2020 04:20:00 2.5 C 96 % 1.93 C
1782 15-02-2020 04:25:00 2.5 C 96 % 1.93 C
1783 15-02-2020 04:30:00 2.5 C 96 % 1.93 C
1784 15-02-2020 04:35:00 2.4 C 96 % 1.83 C
1785 15-02-2020 04:40:00 2.4 C 96 % 1.83 C
1786 15-02-2020 04:45:00 2.5 C 97 % 2.07 C
1787 15-02-2020 04:50:00 2.6 C 97 % 2.17 C
1788 15-02-2020 04:55:00 2.5 C 97 % 2.07 C
1789 15-02-2020 05:00:00 2.5 C 97 % 2.07 C
1790 15-02-2020 05:05:00 2.4 C 97 % 1.97 C
1791 15-02-2020 05:10:00 2.3 C 96 % 1.73 C
1792 15-02-2020 05:15:00 2.3 C 96 % 1.73 C
1793 15-02-2020 05:20:00 2.3 C 96 % 1.73 C
1794 15-02-2020 05:25:00 2.2 C 96 % 1.63 C
1795 15-02-2020 05:30:00 2.2 C 96 % 1.63 C
1796 15-02-2020 05:35:00 2.2 C 96 % 1.63 C
1797 15-02-2020 05:40:00 2.2 C 97 % 1.77 C
1798 15-02-2020 05:45:00 2.2 C 96 % 1.63 C
1799 15-02-2020 05:50:00 2.1 C 96 % 1.53 C
1800 15-02-2020 05:55:00 2.1 C 96 % 1.53 C
Sensor: Nr:Datum:Temp:Feuchte:Taupunkt:
Aussen-T/F 1801 15-02-2020 06:00:00 2 C 96 % 1.43 C
1802 15-02-2020 06:05:00 2 C 96 % 1.43 C
1803 15-02-2020 06:10:00 2 C 96 % 1.43 C
1804 15-02-2020 06:15:00 1.9 C 96 % 1.33 C
1805 15-02-2020 06:20:00 1.8 C 96 % 1.23 C
1806 15-02-2020 06:25:00 1.8 C 96 % 1.23 C
1807 15-02-2020 06:30:00 1.8 C 96 % 1.23 C
1808 15-02-2020 06:35:00 1.8 C 96 % 1.23 C
1809 15-02-2020 06:40:00 1.8 C 97 % 1.38 C
1810 15-02-2020 06:45:00 1.8 C 97 % 1.38 C
1811 15-02-2020 06:50:00 1.8 C 96 % 1.23 C
1812 15-02-2020 06:55:00 1.8 C 97 % 1.38 C
1813 15-02-2020 07:00:00 1.8 C 97 % 1.38 C
1814 15-02-2020 07:05:00 1.8 C 97 % 1.38 C
1815 15-02-2020 07:10:00 1.8 C 97 % 1.38 C
1816 15-02-2020 07:15:00 1.8 C 97 % 1.38 C
1817 15-02-2020 07:20:00 1.7 C 96 % 1.13 C
1818 15-02-2020 07:25:00 1.6 C 97 % 1.18 C
1819 15-02-2020 07:30:00 1.5 C 97 % 1.08 C
1820 15-02-2020 07:35:00 1.4 C 97 % 0.98 C
1821 15-02-2020 07:40:00 1.6 C 96 % 1.03 C
1822 15-02-2020 07:45:00 1.7 C 97 % 1.28 C
1823 15-02-2020 07:50:00 1.9 C 97 % 1.48 C
1824 15-02-2020 07:55:00 2.1 C 97 % 1.67 C
1825 15-02-2020 08:00:00 2.1 C 97 % 1.67 C
Sensor: Nr:Datum:Temp:Feuchte:Taupunkt:
Aussen-T/F 1826 15-02-2020 08:05:00 2.1 C 97 % 1.67 C
1827 15-02-2020 08:10:00 2 C 97 % 1.58 C
1828 15-02-2020 08:15:00 2 C 97 % 1.58 C
1829 15-02-2020 08:20:00 2.1 C 97 % 1.67 C
1830 15-02-2020 08:25:00 2.2 C 97 % 1.77 C
1831 15-02-2020 08:30:00 2.4 C 97 % 1.97 C
1832 15-02-2020 08:35:00 2.4 C 97 % 1.97 C
1833 15-02-2020 08:40:00 2.6 C 97 % 2.17 C
1834 15-02-2020 08:45:00 2.7 C 97 % 2.27 C
1835 15-02-2020 08:50:00 2.7 C 97 % 2.27 C
1836 15-02-2020 08:55:00 2.8 C 97 % 2.37 C
1837 15-02-2020 09:00:00 3.1 C 97 % 2.67 C
1838 15-02-2020 09:05:00 3.1 C 97 % 2.67 C
1839 15-02-2020 09:10:00 3.3 C 97 % 2.87 C
1840 15-02-2020 09:15:00 3.4 C 97 % 2.97 C
1841 15-02-2020 09:20:00 3.5 C 97 % 3.07 C
1842 15-02-2020 09:25:00 3.6 C 97 % 3.17 C
1843 15-02-2020 09:30:00 3.7 C 97 % 3.27 C
1844 15-02-2020 09:35:00 3.8 C 97 % 3.37 C
1845 15-02-2020 09:40:00 3.9 C 97 % 3.47 C
1846 15-02-2020 09:45:00 4.1 C 98 % 3.81 C
1847 15-02-2020 09:50:00 4.3 C 97 % 3.87 C
1848 15-02-2020 09:55:00 4.3 C 98 % 4.01 C
1849 15-02-2020 10:00:00 4.4 C 98 % 4.11 C
1850 15-02-2020 10:05:00 4.5 C 98 % 4.21 C
Sensor: Nr:Datum:Temp:Feuchte:Taupunkt:
Aussen-T/F 1851 15-02-2020 10:10:00 4.5 C 97 % 4.07 C
1852 15-02-2020 10:15:00 4.6 C 97 % 4.17 C
1853 15-02-2020 10:20:00 4.7 C 98 % 4.41 C
1854 15-02-2020 10:25:00 4.8 C 98 % 4.51 C
1855 15-02-2020 10:30:00 4.8 C 97 % 4.37 C
1856 15-02-2020 10:35:00 4.9 C 98 % 4.61 C
1857 15-02-2020 10:40:00 5.1 C 98 % 4.81 C
1858 15-02-2020 10:45:00 5.2 C 97 % 4.76 C
1859 15-02-2020 10:50:00 5.2 C 97 % 4.76 C
1860 15-02-2020 10:55:00 5.3 C 98 % 5.01 C
1861 15-02-2020 11:00:00 5.3 C 97 % 4.86 C
1862 15-02-2020 11:05:00 5.4 C 97 % 4.96 C
1863 15-02-2020 11:10:00 5.7 C 97 % 5.26 C
1864 15-02-2020 11:15:00 6 C 98 % 5.71 C
1865 15-02-2020 11:20:00 6.3 C 98 % 6.01 C
1866 15-02-2020 11:25:00 6.5 C 97 % 6.06 C
1867 15-02-2020 11:30:00 6.7 C 98 % 6.41 C
1868 15-02-2020 11:35:00 6.8 C 97 % 6.36 C
1869 15-02-2020 11:40:00 7.1 C 97 % 6.66 C
1870 15-02-2020 11:45:00 7.2 C 98 % 6.91 C
1871 15-02-2020 11:50:00 7.4 C 97 % 6.96 C
1872 15-02-2020 11:55:00 7.6 C 97 % 7.16 C
1873 15-02-2020 12:00:00 7.7 C 97 % 7.25 C
1874 15-02-2020 12:05:00 7.8 C 96 % 7.2 C
1875 15-02-2020 12:10:00 8 C 96 % 7.4 C
Sensor: Nr:Datum:Temp:Feuchte:Taupunkt:
Aussen-T/F 1876 15-02-2020 12:15:00 8.2 C 95 % 7.45 C
1877 15-02-2020 12:20:00 8.3 C 94 % 7.39 C
1878 15-02-2020 12:25:00 8.6 C 94 % 7.69 C
1879 15-02-2020 12:30:00 8.8 C 93 % 7.73 C
1880 15-02-2020 12:35:00 9.1 C 91 % 7.71 C
1881 15-02-2020 12:40:00 9.4 C 89 % 7.68 C
1882 15-02-2020 12:45:00 9.7 C 87 % 7.64 C
1883 15-02-2020 12:50:00 9.9 C 86 % 7.67 C
1884 15-02-2020 12:55:00 10.2 C 85 % 7.79 C
1885 15-02-2020 13:00:00 10.4 C 83 % 7.64 C
1886 15-02-2020 13:05:00 10.6 C 83 % 7.84 C
1887 15-02-2020 13:10:00 10.7 C 80 % 7.4 C
1888 15-02-2020 13:15:00 10.8 C 79 % 7.31 C
1889 15-02-2020 13:20:00 11 C 78 % 7.32 C
1890 15-02-2020 13:25:00 11.2 C 77 % 7.32 C
1891 15-02-2020 13:30:00 11.3 C 77 % 7.42 C
1892 15-02-2020 13:35:00 11.4 C 77 % 7.52 C
1893 15-02-2020 13:40:00 11.6 C 75 % 7.33 C
1894 15-02-2020 13:45:00 11.7 C 74 % 7.23 C
1895 15-02-2020 13:50:00 11.8 C 75 % 7.52 C
1896 15-02-2020 13:55:00 11.8 C 73 % 7.12 C
1897 15-02-2020 14:00:00 11.8 C 74 % 7.32 C
1898 15-02-2020 14:05:00 11.8 C 74 % 7.32 C
1899 15-02-2020 14:10:00 11.7 C 73 % 7.03 C
1900 15-02-2020 14:15:00 11.7 C 73 % 7.03 C
Sensor: Nr:Datum:Temp:Feuchte:Taupunkt:
Aussen-T/F 1901 15-02-2020 14:20:00 11.6 C 74 % 7.13 C
1902 15-02-2020 14:25:00 11.4 C 74 % 6.94 C
1903 15-02-2020 14:30:00 11.3 C 73 % 6.64 C
1904 15-02-2020 14:35:00 11.3 C 74 % 6.84 C
1905 15-02-2020 14:40:00 11.3 C 75 % 7.04 C
1906 15-02-2020 14:45:00 11.2 C 74 % 6.74 C
1907 15-02-2020 14:50:00 11.2 C 74 % 6.74 C
1908 15-02-2020 14:55:00 11.1 C 74 % 6.65 C
1909 15-02-2020 15:00:00 11.2 C 74 % 6.74 C
1910 15-02-2020 15:05:00 11.2 C 76 % 7.13 C
1911 15-02-2020 15:10:00 11.2 C 75 % 6.94 C
1912 15-02-2020 15:15:00 11.3 C 73 % 6.64 C
1913 15-02-2020 15:20:00 11.4 C 73 % 6.74 C
1914 15-02-2020 15:25:00 11.6 C 73 % 6.93 C
1915 15-02-2020 15:30:00 11.7 C 73 % 7.03 C
1916 15-02-2020 15:35:00 11.7 C 73 % 7.03 C
1917 15-02-2020 15:40:00 11.6 C 73 % 6.93 C
1918 15-02-2020 15:45:00 11.7 C 72 % 6.83 C
1919 15-02-2020 15:50:00 11.7 C 73 % 7.03 C
1920 15-02-2020 15:55:00 11.8 C 74 % 7.32 C
1921 15-02-2020 16:00:00 11.7 C 72 % 6.83 C
1922 15-02-2020 16:05:00 11.7 C 73 % 7.03 C
1923 15-02-2020 16:10:00 11.6 C 73 % 6.93 C
1924 15-02-2020 16:15:00 11.6 C 74 % 7.13 C
1925 15-02-2020 16:20:00 11.4 C 75 % 7.13 C
Sensor: Nr:Datum:Temp:Feuchte:Taupunkt:
Aussen-T/F 1926 15-02-2020 16:25:00 11.2 C 76 % 7.13 C
1927 15-02-2020 16:30:00 11.1 C 77 % 7.23 C
1928 15-02-2020 16:35:00 10.7 C 78 % 7.03 C
1929 15-02-2020 16:40:00 10.4 C 79 % 6.92 C
1930 15-02-2020 16:45:00 10.2 C 80 % 6.91 C
1931 15-02-2020 16:50:00 9.9 C 80 % 6.62 C
1932 15-02-2020 16:55:00 9.9 C 81 % 6.8 C
1933 15-02-2020 17:00:00 9.8 C 81 % 6.7 C
1934 15-02-2020 17:05:00 9.6 C 81 % 6.5 C
1935 15-02-2020 17:10:00 9.5 C 81 % 6.41 C
1936 15-02-2020 17:15:00 9.3 C 83 % 6.57 C
1937 15-02-2020 17:20:00 9.2 C 83 % 6.47 C
1938 15-02-2020 17:25:00 8.9 C 84 % 6.35 C
1939 15-02-2020 17:30:00 8.8 C 84 % 6.25 C
1940 15-02-2020 17:35:00 8.6 C 85 % 6.23 C
1941 15-02-2020 17:40:00 8.4 C 85 % 6.03 C
1942 15-02-2020 17:45:00 8.3 C 85 % 5.93 C
1943 15-02-2020 17:50:00 8.2 C 86 % 6 C
1944 15-02-2020 17:55:00 8.1 C 86 % 5.9 C
1945 15-02-2020 18:00:00 7.9 C 87 % 5.87 C
1946 15-02-2020 18:05:00 7.7 C 87 % 5.68 C
1947 15-02-2020 18:10:00 7.7 C 88 % 5.84 C
1948 15-02-2020 18:15:00 7.6 C 88 % 5.74 C
1949 15-02-2020 18:20:00 7.6 C 88 % 5.74 C
1950 15-02-2020 18:25:00 7.6 C 89 % 5.91 C
Sensor: Nr:Datum:Temp:Feuchte:Taupunkt:
Aussen-T/F 1951 15-02-2020 18:30:00 7.6 C 89 % 5.91 C
1952 15-02-2020 18:35:00 7.5 C 89 % 5.81 C
1953 15-02-2020 18:40:00 7.5 C 89 % 5.81 C
1954 15-02-2020 18:45:00 7.4 C 89 % 5.71 C
1955 15-02-2020 18:50:00 7.4 C 90 % 5.87 C
1956 15-02-2020 18:55:00 7.4 C 90 % 5.87 C
1957 15-02-2020 19:00:00 7.4 C 90 % 5.87 C
1958 15-02-2020 19:05:00 7.4 C 89 % 5.71 C
1959 15-02-2020 19:10:00 7.4 C 90 % 5.87 C
1960 15-02-2020 19:15:00 7.4 C 89 % 5.71 C
1961 15-02-2020 19:20:00 7.4 C 89 % 5.71 C
1962 15-02-2020 19:25:00 7.4 C 90 % 5.87 C
1963 15-02-2020 19:30:00 7.4 C 89 % 5.71 C
1964 15-02-2020 19:35:00 7.3 C 90 % 5.77 C
1965 15-02-2020 19:40:00 7.3 C 90 % 5.77 C
1966 15-02-2020 19:45:00 7.3 C 90 % 5.77 C
1967 15-02-2020 19:50:00 7.3 C 90 % 5.77 C
1968 15-02-2020 19:55:00 7.2 C 90 % 5.67 C
1969 15-02-2020 20:00:00 7.2 C 90 % 5.67 C
1970 15-02-2020 20:05:00 7.3 C 90 % 5.77 C
1971 15-02-2020 20:10:00 7.3 C 89 % 5.61 C
1972 15-02-2020 20:15:00 7.5 C 89 % 5.81 C
1973 15-02-2020 20:20:00 7.6 C 89 % 5.91 C
1974 15-02-2020 20:25:00 7.7 C 89 % 6 C
1975 15-02-2020 20:30:00 7.7 C 89 % 6 C
Sensor: Nr:Datum:Temp:Feuchte:Taupunkt:
Aussen-T/F 1976 15-02-2020 20:35:00 7.7 C 88 % 5.84 C
1977 15-02-2020 20:40:00 7.8 C 88 % 5.94 C
1978 15-02-2020 20:45:00 7.8 C 88 % 5.94 C
1979 15-02-2020 20:50:00 7.9 C 88 % 6.04 C
1980 15-02-2020 20:55:00 7.9 C 88 % 6.04 C
1981 15-02-2020 21:00:00 7.9 C 88 % 6.04 C
1982 15-02-2020 21:05:00 7.9 C 87 % 5.87 C
1983 15-02-2020 21:10:00 8 C 88 % 6.14 C
1984 15-02-2020 21:15:00 7.9 C 87 % 5.87 C
1985 15-02-2020 21:20:00 7.9 C 87 % 5.87 C
1986 15-02-2020 21:25:00 8 C 86 % 5.81 C
1987 15-02-2020 21:30:00 8.2 C 86 % 6 C
1988 15-02-2020 21:35:00 8.2 C 85 % 5.83 C
1989 15-02-2020 21:40:00 8.3 C 85 % 5.93 C
1990 15-02-2020 21:45:00 8.3 C 85 % 5.93 C
1991 15-02-2020 21:50:00 8.3 C 85 % 5.93 C
1992 15-02-2020 21:55:00 8.3 C 84 % 5.76 C
1993 15-02-2020 22:00:00 8.3 C 85 % 5.93 C
1994 15-02-2020 22:05:00 8.3 C 84 % 5.76 C
1995 15-02-2020 22:10:00 8.3 C 84 % 5.76 C
1996 15-02-2020 22:15:00 8.4 C 84 % 5.86 C
1997 15-02-2020 22:20:00 8.3 C 84 % 5.76 C
1998 15-02-2020 22:25:00 8.4 C 83 % 5.69 C
1999 15-02-2020 22:30:00 8.6 C 83 % 5.88 C
2000 15-02-2020 22:35:00 8.7 C 83 % 5.98 C
Sensor: Nr:Datum:Temp:Feuchte:Taupunkt:
Aussen-T/F 2001 15-02-2020 22:40:00 8.8 C 83 % 6.08 C
2002 15-02-2020 22:45:00 9.1 C 82 % 6.19 C
2003 15-02-2020 22:50:00 9.2 C 81 % 6.11 C
2004 15-02-2020 22:55:00 9.3 C 81 % 6.21 C
2005 15-02-2020 23:00:00 9.3 C 81 % 6.21 C
2006 15-02-2020 23:05:00 9.4 C 79 % 5.95 C
2007 15-02-2020 23:10:00 9.9 C 77 % 6.06 C
2008 15-02-2020 23:15:00 10.2 C 77 % 6.35 C
2009 15-02-2020 23:20:00 10.3 C 77 % 6.45 C
2010 15-02-2020 23:25:00 10.2 C 77 % 6.35 C
2011 15-02-2020 23:30:00 10.1 C 78 % 6.44 C
2012 15-02-2020 23:35:00 9.9 C 79 % 6.43 C
2013 15-02-2020 23:40:00 9.9 C 78 % 6.25 C
2014 15-02-2020 23:45:00 10.1 C 76 % 6.07 C
2015 15-02-2020 23:50:00 10.3 C 76 % 6.26 C
2016 15-02-2020 23:55:00 10.4 C 77 % 6.55 C

Legende:
   Min
   Max


Maximal/Minimal-Werte vom 09.02.2020 - 15.02.2020

Sensor Min Max Avg
Temp
(Aussen-T/F)
-0.1 °C
13-02-2020  05:35:00
13 °C
09-02-2020  17:40:00
6.31 °C
Feuchte
(Aussen-T/F)
61 %
11-02-2020  13:55:00
98 %
09-02-2020  07:45:00
84.72 %
Taupunkt
(Aussen-T/F)
-0.8 C
13-02-2020  05:35:00
10.35 C
10-02-2020  01:20:00
3.82 C

Die Daten stammen von einer Davis Vantage Pro 2 Wetter-Station und werden unter Linux mit der Software wview2wettercgi und aufbereitet. Alle Angaben erfolgen ohne Gewähr für ihre Vollständigkeit oder Richtigkeit.
Kontakt: Rainer Krienke krienke@uni-koblenz.de . Meine Webseiten an der Uni Koblenz oder privat.
Version: $Revision: 0.78 $